Observation data for Dozier on 03/10/2018      Previous  Date  Next       Current Mesonet Observations  Soil Data  Daily Summary Page  Observations in Plain Language
KDO1 100600Z 03002KT 08/M05 A2979 RMK A01 T00821054  RH  038%=      5-min Rain = 0
KDO1 100601Z 02002KT 08/M06 A2979 RMK A01 T00801055  RH  038%=      5-min Rain = 0
KDO1 100602Z 01003KT 08/M06 A2979 RMK A01 T00781055  RH  039%=      5-min Rain = 0
KDO1 100603Z 01003KT 08/M06 A2979 RMK A01 T00771055  RH  039%=      5-min Rain = 0
KDO1 100604Z 00004KT 08/M05 A2979 RMK A01 T00761054  RH  039%=      5-min Rain = 0
KDO1 100605Z 00004KT 08/M06 A2979 RMK A01 T00751056  RH  039%=      5-min Rain = 0
KDO1 100606Z 00004KT 08/M06 A2979 RMK A01 T00751055  RH  039%=      5-min Rain = 0
KDO1 100607Z 36004KT 07/M06 A2979 RMK A01 T00741055  RH  039%=      5-min Rain = 0
KDO1 100608Z 36003KT 07/M05 A2979 RMK A01 T00741054  RH  040%=      5-min Rain = 0
KDO1 100609Z 36004KT 07/M05 A2979 RMK A01 T00731054  RH  040%=      5-min Rain = 0
KDO1 100610Z 36004KT 07/M05 A2979 RMK A01 T00721054  RH  040%=      5-min Rain = 0
KDO1 100611Z 36005KT 07/M05 A2979 RMK A01 T00721053  RH  041%=      5-min Rain = 0
KDO1 100612Z 36006KT 08/M05 A2979 RMK A01 T00751049  RH  041%=      5-min Rain = 0
KDO1 100613Z 00005KT 08/M05 A2979 RMK A01 T00781048  RH  040%=      5-min Rain = 0
KDO1 100614Z 36005KT 08/M05 A2979 RMK A01 T00801048  RH  040%=      5-min Rain = 0
KDO1 100615Z 00005KT 08/M05 A2979 RMK A01 T00811048  RH  039%=      5-min Rain = 0
KDO1 100616Z 00005KT 08/M05 A2979 RMK A01 T00821048  RH  039%=      5-min Rain = 0
KDO1 100617Z 00005KT 08/M05 A2979 RMK A01 T00831048  RH  039%=      5-min Rain = 0
KDO1 100618Z 36005KT 08/M05 A2979 RMK A01 T00831049  RH  039%=      5-min Rain = 0
KDO1 100619Z 36005KT 08/M05 A2979 RMK A01 T00841050  RH  038%=      5-min Rain = 0
KDO1 100620Z 36005KT 08/M05 A2979 RMK A01 T00831051  RH  038%=      5-min Rain = 0
KDO1 100621Z 35005KT 08/M05 A2979 RMK A01 T00831051  RH  038%=      5-min Rain = 0
KDO1 100622Z 36005KT 08/M05 A298 RMK A01 T00831051  RH  038%=      5-min Rain = 0
KDO1 100623Z 35005KT 08/M05 A298 RMK A01 T00831052  RH  038%=      5-min Rain = 0
KDO1 100624Z 35004KT 08/M05 A298 RMK A01 T00841052  RH  038%=      5-min Rain = 0
KDO1 100625Z 36004KT 09/M05 A298 RMK A01 T00851052  RH  038%=      5-min Rain = 0
KDO1 100626Z 35004KT 09/M05 A298 RMK A01 T00871051  RH  037%=      5-min Rain = 0
KDO1 100627Z 36004KT 09/M05 A298 RMK A01 T00881051  RH  037%=      5-min Rain = 0
KDO1 100628Z 35004KT 09/M05 A298 RMK A01 T00891051  RH  037%=      5-min Rain = 0
KDO1 100629Z 35004KT 09/M05 A298 RMK A01 T00901051  RH  037%=      5-min Rain = 0
KDO1 100630Z 35004KT 09/M05 A298 RMK A01 T00891052  RH  037%=      5-min Rain = 0
KDO1 100631Z 34003KT 09/M05 A298 RMK A01 T00871052  RH  037%=      5-min Rain = 0
KDO1 100632Z 34003KT 09/M05 A298 RMK A01 T00871052  RH  037%=      5-min Rain = 0
KDO1 100633Z 34003KT 09/M05 A298 RMK A01 T00871052  RH  037%=      5-min Rain = 0
KDO1 100634Z 34004KT 09/M05 A2981 RMK A01 T00891051  RH  037%=      5-min Rain = 0
KDO1 100635Z 35004KT 09/M05 A2981 RMK A01 T00911051  RH  036%=      5-min Rain = 0
KDO1 100636Z 35004KT 09/M05 A2981 RMK A01 T00931052  RH  036%=      5-min Rain = 0
KDO1 100637Z 00004KT 09/M05 A298 RMK A01 T00941052  RH  035%=      5-min Rain = 0
KDO1 100638Z 36004KT 10/M05 A298 RMK A01 T00961052  RH  035%=      5-min Rain = 0
KDO1 100639Z 00004KT 10/M05 A298 RMK A01 T00971053  RH  034%=      5-min Rain = 0
KDO1 100640Z 00003KT 10/M05 A298 RMK A01 T00971053  RH  034%=      5-min Rain = 0
KDO1 100641Z 01003KT 10/M05 A298 RMK A01 T00961053  RH  035%=      5-min Rain = 0
KDO1 100642Z 02002KT 10/M05 A298 RMK A01 T00951054  RH  035%=      5-min Rain = 0
KDO1 100643Z 03002KT 09/M05 A298 RMK A01 T00941054  RH  035%=      5-min Rain = 0
KDO1 100644Z 03002KT 09/M05 A298 RMK A01 T00941054  RH  035%=      5-min Rain = 0
KDO1 100645Z 03002KT 09/M05 A298 RMK A01 T00941054  RH  035%=      5-min Rain = 0
KDO1 100646Z 03002KT 09/M05 A298 RMK A01 T00941053  RH  035%=      5-min Rain = 0
KDO1 100647Z 02002KT 10/M05 A298 RMK A01 T00951052  RH  035%=      5-min Rain = 0
KDO1 100648Z 00002KT 10/M05 A298 RMK A01 T00951051  RH  035%=      5-min Rain = 0
KDO1 100649Z 35003KT 10/M05 A298 RMK A01 T00951051  RH  035%=      5-min Rain = 0
KDO1 100650Z 35003KT 10/M05 A298 RMK A01 T00961051  RH  035%=      5-min Rain = 0
KDO1 100651Z 35004KT 10/M05 A298 RMK A01 T00961051  RH  035%=      5-min Rain = 0
KDO1 100652Z 34004KT 10/M05 A298 RMK A01 T00951053  RH  035%=      5-min Rain = 0
KDO1 100653Z 34004KT 09/M05 A298 RMK A01 T00931054  RH  035%=      5-min Rain = 0
KDO1 100654Z 33004KT 09/M06 A298 RMK A01 T00901055  RH  035%=      5-min Rain = 0
KDO1 100655Z 33004KT 09/M06 A2981 RMK A01 T00881055  RH  036%=      5-min Rain = 0
KDO1 100656Z 33005KT 09/M06 A2981 RMK A01 T00881056  RH  036%=      5-min Rain = 0
KDO1 100657Z 33005KT 09/M06 A2981 RMK A01 T00881057  RH  036%=      5-min Rain = 0
KDO1 100658Z 33005KT 09/M06 A2981 RMK A01 T00881058  RH  035%=      5-min Rain = 0
KDO1 100659Z 34005KT 09/M06 A2981 RMK A01 T00901061  RH  034%=      5-min Rain = 0
KDO1 100700Z 35005KT 10/M06 A2981 RMK A01 T00951062  RH  033%=      5-min Rain = 0
KDO1 100701Z 35005KT 10/M06 A2981 RMK A01 T00981062  RH  032%=      5-min Rain = 0
KDO1 100702Z 35005KT 10/M06 A2981 RMK A01 T01011061  RH  031%=      5-min Rain = 0
KDO1 100703Z 35005KT 10/M06 A2981 RMK A01 T01041061  RH  031%=      5-min Rain = 0
KDO1 100704Z 36005KT 11/M06 A2981 RMK A01 T01061061  RH  030%=      5-min Rain = 0
KDO1 100705Z 36004KT 11/M06 A2981 RMK A01 T01081061  RH  030%=      5-min Rain = 0
KDO1 100706Z 00004KT 11/M06 A2981 RMK A01 T01101061  RH  030%=      5-min Rain = 0
KDO1 100707Z 00004KT 11/M06 A2981 RMK A01 T01101062  RH  029%=      5-min Rain = 0
KDO1 100708Z 00004KT 11/M07 A2981 RMK A01 T01071065  RH  029%=      5-min Rain = 0
KDO1 100709Z 00003KT 10/M07 A2981 RMK A01 T01021066  RH  030%=      5-min Rain = 0
KDO1 100710Z 36003KT 10/M07 A2981 RMK A01 T01001066  RH  030%=      5-min Rain = 0
KDO1 100711Z 36004KT 10/M07 A2981 RMK A01 T00981065  RH  031%=      5-min Rain = 0
KDO1 100712Z 35004KT 10/M07 A2981 RMK A01 T00981065  RH  031%=      5-min Rain = 0
KDO1 100713Z 35003KT 10/M07 A2981 RMK A01 T00971065  RH  031%=      5-min Rain = 0
KDO1 100714Z 34004KT 10/M07 A2981 RMK A01 T00971065  RH  031%=      5-min Rain = 0
KDO1 100715Z 34004KT 10/M06 A2981 RMK A01 T00981064  RH  031%=      5-min Rain = 0
KDO1 100716Z 34003KT 10/M06 A2981 RMK A01 T00981064  RH  031%=      5-min Rain = 0
KDO1 100717Z 34003KT 10/M07 A2981 RMK A01 T00951066  RH  031%=      5-min Rain = 0
KDO1 100718Z 34003KT 09/M07 A2981 RMK A01 T00901067  RH  032%=      5-min Rain = 0
KDO1 100719Z 34003KT 09/M07 A2981 RMK A01 T00851067  RH  034%=      5-min Rain = 0
KDO1 100720Z 33003KT 08/M07 A2981 RMK A01 T00821066  RH  034%=      5-min Rain = 0
KDO1 100721Z 33001KT 08/M07 A2981 RMK A01 T00801067  RH  035%=      5-min Rain = 0
KDO1 100722Z 34001KT 08/M06 A2981 RMK A01 T00781064  RH  036%=      5-min Rain = 0
KDO1 100723Z 34003KT 08/M06 A2981 RMK A01 T00761062  RH  037%=      5-min Rain = 0
KDO1 100724Z 35003KT 07/M06 A2981 RMK A01 T00741062  RH  037%=      5-min Rain = 0
KDO1 100725Z 01002KT 07/M06 A2981 RMK A01 T00731062  RH  038%=      5-min Rain = 0
KDO1 100726Z 01002KT 07/M06 A2981 RMK A01 T00721060  RH  038%=      5-min Rain = 0
KDO1 100727Z 06002KT 07/M06 A2981 RMK A01 T00701061  RH  039%=      5-min Rain = 0
KDO1 100728Z 01002KT 07/M06 A298 RMK A01 T00661059  RH  041%=      5-min Rain = 0
KDO1 100729Z 01003KT 06/M06 A298 RMK A01 T00631057  RH  042%=      5-min Rain = 0
KDO1 100730Z 08002KT 06/M06 A298 RMK A01 T00611057  RH  043%=      5-min Rain = 0
KDO1 100731Z 02002KT 06/M06 A298 RMK A01 T00601057  RH  043%=      5-min Rain = 0
KDO1 100732Z 06002KT 06/M06 A298 RMK A01 T00601057  RH  043%=      5-min Rain = 0
KDO1 100733Z 02001KT 06/M06 A298 RMK A01 T00591057  RH  043%=      5-min Rain = 0
KDO1 100734Z 02002KT 06/M06 A298 RMK A01 T00591058  RH  043%=      5-min Rain = 0
KDO1 100735Z 08001KT 06/M06 A298 RMK A01 T00591057  RH  043%=      5-min Rain = 0
KDO1 100736Z 02001KT 06/M06 A298 RMK A01 T00591057  RH  043%=      5-min Rain = 0
KDO1 100737Z 02001KT 06/M06 A298 RMK A01 T00591057  RH  043%=      5-min Rain = 0
KDO1 100738Z 03000KT 06/M06 A298 RMK A01 T00591057  RH  043%=      5-min Rain = 0
KDO1 100739Z 09000KT 06/M06 A298 RMK A01 T00591057  RH  043%=      5-min Rain = 0
KDO1 100740Z 00001KT 06/M06 A298 RMK A01 T00581057  RH  043%=      5-min Rain = 0
KDO1 100741Z 01002KT 06/M06 A2979 RMK A01 T00581056  RH  044%=      5-min Rain = 0
KDO1 100742Z 01002KT 06/M06 A2979 RMK A01 T00581056  RH  044%=      5-min Rain = 0
KDO1 100743Z 01002KT 06/M06 A2979 RMK A01 T00581057  RH  044%=      5-min Rain = 0
KDO1 100744Z 01002KT 06/M06 A2979 RMK A01 T00571056  RH  044%=      5-min Rain = 0
KDO1 100745Z 01002KT 06/M06 A2979 RMK A01 T00571056  RH  044%=      5-min Rain = 0
KDO1 100746Z 03001KT 06/M06 A2979 RMK A01 T00581057  RH  043%=      5-min Rain = 0
KDO1 100747Z 03001KT 06/M06 A2979 RMK A01 T00581057  RH  043%=      5-min Rain = 0
KDO1 100748Z 35001KT 06/M06 A2979 RMK A01 T00581057  RH  043%=      5-min Rain = 0
KDO1 100749Z 35002KT 06/M06 A2979 RMK A01 T00581057  RH  043%=      5-min Rain = 0
KDO1 100750Z 35003KT 06/M06 A2979 RMK A01 T00581057  RH  044%=      5-min Rain = 0
KDO1 100751Z 35003KT 06/M06 A2979 RMK A01 T00591058  RH  043%=      5-min Rain = 0
KDO1 100752Z 36004KT 06/M06 A2979 RMK A01 T00611058  RH  042%=      5-min Rain = 0
KDO1 100753Z 00006KT 06/M06 A2979 RMK A01 T00611059  RH  042%=      5-min Rain = 0
KDO1 100754Z 00006KT 06/M06 A2979 RMK A01 T00611060  RH  042%=      5-min Rain = 0
KDO1 100755Z 00006KT 06/M06 A2979 RMK A01 T00601060  RH  042%=      5-min Rain = 0
KDO1 100756Z 01006KT 06/M06 A2979 RMK A01 T00601061  RH  042%=      5-min Rain = 0
KDO1 100757Z 01005KT 06/M06 A2979 RMK A01 T00601061  RH  042%=      5-min Rain = 0
KDO1 100758Z 01005KT 06/M06 A2979 RMK A01 T00591061  RH  042%=      5-min Rain = 0
KDO1 100759Z 01005KT 06/M06 A2979 RMK A01 T00591061  RH  042%=      5-min Rain = 0
KDO1 100800Z 01005KT 06/M06 A2979 RMK A01 T00611060  RH  041%=      5-min Rain = 0
KDO1 100801Z 01005KT 06/M06 A2979 RMK A01 T00621060  RH  041%=      5-min Rain = 0
KDO1 100802Z 01005KT 06/M06 A2979 RMK A01 T00621061  RH  041%=      5-min Rain = 0
KDO1 100803Z 01005KT 06/M06 A2979 RMK A01 T00641061  RH  041%=      5-min Rain = 0
KDO1 100804Z 01005KT 07/M06 A2979 RMK A01 T00671060  RH  040%=      5-min Rain = 0
KDO1 100805Z 02005KT 07/M06 A2979 RMK A01 T00711060  RH  039%=      5-min Rain = 0
KDO1 100806Z 01005KT 07/M06 A2979 RMK A01 T00731061  RH  038%=      5-min Rain = 0
KDO1 100807Z 02005KT 08/M06 A2979 RMK A01 T00761061  RH  037%=      5-min Rain = 0
KDO1 100808Z 01005KT 08/M06 A2979 RMK A01 T00781061  RH  037%=      5-min Rain = 0
KDO1 100809Z 01004KT 08/M06 A2979 RMK A01 T00801061  RH  036%=      5-min Rain = 0
KDO1 100810Z 02004KT 08/M06 A2979 RMK A01 T00811061  RH  036%=      5-min Rain = 0
KDO1 100811Z 02004KT 08/M06 A2979 RMK A01 T00841061  RH  035%=      5-min Rain = 0
KDO1 100812Z 02004KT 09/M06 A2979 RMK A01 T00861061  RH  035%=      5-min Rain = 0
KDO1 100813Z 02004KT 09/M06 A2979 RMK A01 T00861062  RH  034%=      5-min Rain = 0
KDO1 100814Z 03004KT 09/M06 A2979 RMK A01 T00871062  RH  034%=      5-min Rain = 0
KDO1 100815Z 03004KT 09/M06 A2979 RMK A01 T00891062  RH  034%=      5-min Rain = 0
KDO1 100816Z 03004KT 09/M06 A2979 RMK A01 T00911062  RH  034%=      5-min Rain = 0
KDO1 100817Z 03004KT 09/M06 A2979 RMK A01 T00921062  RH  033%=      5-min Rain = 0
KDO1 100818Z 03004KT 09/M06 A2979 RMK A01 T00931062  RH  033%=      5-min Rain = 0
KDO1 100819Z 03004KT 09/M06 A2979 RMK A01 T00921062  RH  033%=      5-min Rain = 0
KDO1 100820Z 03004KT 09/M06 A2979 RMK A01 T00881062  RH  034%=      5-min Rain = 0
KDO1 100821Z 03004KT 08/M06 A2979 RMK A01 T00821062  RH  035%=      5-min Rain = 0
KDO1 100822Z 02004KT 08/M06 A2979 RMK A01 T00761062  RH  037%=      5-min Rain = 0
KDO1 100823Z 03004KT 07/M06 A2978 RMK A01 T00701060  RH  039%=      5-min Rain = 0
KDO1 100824Z 03005KT 07/M06 A2978 RMK A01 T00661062  RH  040%=      5-min Rain = 0
KDO1 100825Z 03004KT 07/M06 A2978 RMK A01 T00661063  RH  039%=      5-min Rain = 0
KDO1 100826Z 02004KT 07/M06 A2978 RMK A01 T00671063  RH  039%=      5-min Rain = 0
KDO1 100827Z 02003KT 07/M06 A2978 RMK A01 T00671062  RH  039%=      5-min Rain = 0
KDO1 100828Z 02003KT 07/M06 A2978 RMK A01 T00661062  RH  039%=      5-min Rain = 0
KDO1 100829Z 02004KT 07/M06 A2978 RMK A01 T00651062  RH  040%=      5-min Rain = 0
KDO1 100830Z 02004KT 06/M06 A2978 RMK A01 T00641062  RH  040%=      5-min Rain = 0
KDO1 100831Z 02005KT 06/M06 A2978 RMK A01 T00641062  RH  040%=      5-min Rain = 0
KDO1 100832Z 02005KT 07/M06 A2978 RMK A01 T00651063  RH  040%=      5-min Rain = 0
KDO1 100833Z 02005KT 07/M06 A2978 RMK A01 T00681063  RH  039%=      5-min Rain = 0
KDO1 100834Z 02005KT 08/M06 A2978 RMK A01 T00751061  RH  037%=      5-min Rain = 0
KDO1 100835Z 02004KT 08/M06 A2978 RMK A01 T00801061  RH  036%=      5-min Rain = 0
KDO1 100836Z 02004KT 08/M06 A2978 RMK A01 T00841061  RH  035%=      5-min Rain = 0
KDO1 100837Z 03004KT 08/M06 A2978 RMK A01 T00841061  RH  035%=      5-min Rain = 0
KDO1 100838Z 03005KT 08/M06 A2978 RMK A01 T00831062  RH  035%=      5-min Rain = 0
KDO1 100839Z 03004KT 08/M06 A2978 RMK A01 T00831063  RH  035%=      5-min Rain = 0
KDO1 100840Z 03004KT 08/M06 A2978 RMK A01 T00841063  RH  035%=      5-min Rain = 0
KDO1 100841Z 04005KT 09/M06 A2977 RMK A01 T00861063  RH  034%=      5-min Rain = 0
KDO1 100842Z 04005KT 09/M06 A2977 RMK A01 T00871063  RH  034%=      5-min Rain = 0
KDO1 100843Z 04005KT 09/M06 A2977 RMK A01 T00891062  RH  034%=      5-min Rain = 0
KDO1 100844Z 04005KT 09/M06 A2977 RMK A01 T00921062  RH  033%=      5-min Rain = 0
KDO1 100845Z 04005KT 09/M06 A2977 RMK A01 T00941062  RH  033%=      5-min Rain = 0
KDO1 100846Z 04005KT 10/M06 A2977 RMK A01 T00951062  RH  032%=      5-min Rain = 0
KDO1 100847Z 04004KT 10/M06 A2977 RMK A01 T00971062  RH  032%=      5-min Rain = 0
KDO1 100848Z 03004KT 10/M06 A2977 RMK A01 T00971062  RH  032%=      5-min Rain = 0
KDO1 100849Z 02002KT 10/M06 A2977 RMK A01 T00951062  RH  032%=      5-min Rain = 0
KDO1 100850Z 00001KT 09/M06 A2977 RMK A01 T00891064  RH  033%=      5-min Rain = 0
KDO1 100851Z 32002KT 07/M07 A2977 RMK A01 T00741070  RH  035%=      5-min Rain = 0
KDO1 100852Z 32003KT 06/M07 A2977 RMK A01 T00631069  RH  038%=      5-min Rain = 0
KDO1 100853Z 31003KT 06/M07 A2977 RMK A01 T00591067  RH  040%=      5-min Rain = 0
KDO1 100854Z 32004KT 06/M07 A2977 RMK A01 T00591066  RH  040%=      5-min Rain = 0
KDO1 100855Z 33004KT 06/M07 A2977 RMK A01 T00591066  RH  040%=      5-min Rain = 0
KDO1 100856Z 34004KT 06/M07 A2977 RMK A01 T00601066  RH  040%=      5-min Rain = 0
KDO1 100857Z 35004KT 07/M06 A2977 RMK A01 T00651064  RH  039%=      5-min Rain = 0
KDO1 100858Z 00004KT 07/M06 A2977 RMK A01 T00711063  RH  038%=      5-min Rain = 0
KDO1 100859Z 02005KT 08/M06 A2977 RMK A01 T00791063  RH  036%=      5-min Rain = 0
KDO1 100900Z 02005KT 08/M06 A2977 RMK A01 T00831064  RH  034%=      5-min Rain = 0
KDO1 100901Z 03005KT 09/M06 A2977 RMK A01 T00891062  RH  034%=      5-min Rain = 0
KDO1 100902Z 03005KT 09/M06 A2977 RMK A01 T00911063  RH  033%=      5-min Rain = 0
KDO1 100903Z 03004KT 09/M06 A2977 RMK A01 T00931063  RH  033%=      5-min Rain = 0
KDO1 100904Z 02004KT 09/M06 A2977 RMK A01 T00931063  RH  033%=      5-min Rain = 0
KDO1 100905Z 02004KT 09/M06 A2977 RMK A01 T00931062  RH  033%=      5-min Rain = 0
KDO1 100906Z 02002KT 09/M06 A2976 RMK A01 T00901062  RH  034%=      5-min Rain = 0
KDO1 100907Z 01002KT 09/M06 A2976 RMK A01 T00851063  RH  034%=      5-min Rain = 0
KDO1 100908Z 01002KT 08/M06 A2976 RMK A01 T00821063  RH  035%=      5-min Rain = 0
KDO1 100909Z 00003KT 08/M06 A2976 RMK A01 T00801063  RH  036%=      5-min Rain = 0
KDO1 100910Z 00004KT 08/M06 A2976 RMK A01 T00791063  RH  036%=      5-min Rain = 0
KDO1 100911Z 36004KT 08/M06 A2976 RMK A01 T00791063  RH  036%=      5-min Rain = 0
KDO1 100912Z 36004KT 08/M06 A2976 RMK A01 T00781064  RH  036%=      5-min Rain = 0
KDO1 100913Z 00005KT 08/M07 A2976 RMK A01 T00761065  RH  036%=      5-min Rain = 0
KDO1 100914Z 00005KT 08/M07 A2976 RMK A01 T00751065  RH  036%=      5-min Rain = 0
KDO1 100915Z 00005KT 08/M06 A2976 RMK A01 T00761064  RH  036%=      5-min Rain = 0
KDO1 100916Z 00006KT 08/M06 A2976 RMK A01 T00801062  RH  036%=      5-min Rain = 0
KDO1 100917Z 01005KT 09/M06 A2976 RMK A01 T00851062  RH  035%=      5-min Rain = 0
KDO1 100918Z 02003KT 09/M06 A2976 RMK A01 T00861061  RH  035%=      5-min Rain = 0
KDO1 100919Z 02003KT 08/M06 A2976 RMK A01 T00841062  RH  035%=      5-min Rain = 0
KDO1 100920Z 02003KT 08/M06 A2976 RMK A01 T00831062  RH  035%=      5-min Rain = 0
KDO1 100921Z 02004KT 08/M06 A2976 RMK A01 T00821062  RH  035%=      5-min Rain = 0
KDO1 100922Z 01002KT 08/M06 A2976 RMK A01 T00821062  RH  036%=      5-min Rain = 0
KDO1 100923Z 36003KT 08/M06 A2976 RMK A01 T00791063  RH  036%=      5-min Rain = 0
KDO1 100924Z 34003KT 08/M06 A2976 RMK A01 T00761062  RH  037%=      5-min Rain = 0
KDO1 100925Z 32003KT 07/M06 A2977 RMK A01 T00721063  RH  038%=      5-min Rain = 0
KDO1 100926Z 31003KT 07/M07 A2977 RMK A01 T00671065  RH  038%=      5-min Rain = 0
KDO1 100927Z 31003KT 07/M07 A2977 RMK A01 T00651065  RH  039%=      5-min Rain = 0
KDO1 100928Z 31003KT 07/M07 A2977 RMK A01 T00651065  RH  039%=      5-min Rain = 0
KDO1 100929Z 32003KT 07/M06 A2977 RMK A01 T00661064  RH  039%=      5-min Rain = 0
KDO1 100930Z 32003KT 07/M06 A2977 RMK A01 T00661064  RH  039%=      5-min Rain = 0
KDO1 100931Z 32003KT 07/M06 A2977 RMK A01 T00661063  RH  039%=      5-min Rain = 0
KDO1 100932Z 32003KT 07/M06 A2977 RMK A01 T00651063  RH  040%=      5-min Rain = 0
KDO1 100933Z 34003KT 07/M06 A2977 RMK A01 T00661063  RH  039%=      5-min Rain = 0
KDO1 100934Z 34003KT 07/M06 A2977 RMK A01 T00661062  RH  039%=      5-min Rain = 0
KDO1 100935Z 35004KT 07/M06 A2977 RMK A01 T00661062  RH  039%=      5-min Rain = 0
KDO1 100936Z 35004KT 07/M06 A2977 RMK A01 T00671062  RH  039%=      5-min Rain = 0
KDO1 100937Z 35004KT 07/M06 A2977 RMK A01 T00681061  RH  039%=      5-min Rain = 0
KDO1 100938Z 34004KT 07/M06 A2977 RMK A01 T00691061  RH  039%=      5-min Rain = 0
KDO1 100939Z 34003KT 07/M06 A2977 RMK A01 T00691061  RH  039%=      5-min Rain = 0
KDO1 100940Z 34003KT 07/M06 A2977 RMK A01 T00701061  RH  039%=      5-min Rain = 0
KDO1 100941Z 34003KT 07/M06 A2977 RMK A01 T00691061  RH  039%=      5-min Rain = 0
KDO1 100942Z 34003KT 07/M06 A2977 RMK A01 T00651061  RH  040%=      5-min Rain = 0
KDO1 100943Z 34003KT 06/M06 A2977 RMK A01 T00611062  RH  041%=      5-min Rain = 0
KDO1 100944Z 34003KT 06/M06 A2977 RMK A01 T00601062  RH  041%=      5-min Rain = 0
KDO1 100945Z 34003KT 06/M06 A2977 RMK A01 T00601061  RH  041%=      5-min Rain = 0
KDO1 100946Z 34003KT 06/M06 A2977 RMK A01 T00591062  RH  041%=      5-min Rain = 0
KDO1 100947Z 34004KT 06/M06 A2977 RMK A01 T00591061  RH  042%=      5-min Rain = 0
KDO1 100948Z 34004KT 06/M06 A2977 RMK A01 T00591061  RH  042%=      5-min Rain = 0
KDO1 100949Z 34004KT 06/M06 A2977 RMK A01 T00601061  RH  041%=      5-min Rain = 0
KDO1 100950Z 33004KT 06/M06 A2977 RMK A01 T00611062  RH  041%=      5-min Rain = 0
KDO1 100951Z 34004KT 06/M06 A2976 RMK A01 T00621061  RH  041%=      5-min Rain = 0
KDO1 100952Z 34004KT 06/M06 A2976 RMK A01 T00631063  RH  040%=      5-min Rain = 0
KDO1 100953Z 35005KT 07/M06 A2976 RMK A01 T00651061  RH  040%=      5-min Rain = 0
KDO1 100954Z 35005KT 07/M06 A2976 RMK A01 T00661059  RH  040%=      5-min Rain = 0
KDO1 100955Z 35005KT 07/M06 A2976 RMK A01 T00681058  RH  040%=      5-min Rain = 0
KDO1 100956Z 35005KT 07/M06 A2976 RMK A01 T00701058  RH  040%=      5-min Rain = 0
KDO1 100957Z 36005KT 07/M06 A2976 RMK A01 T00721058  RH  039%=      5-min Rain = 0
KDO1 100958Z 36005KT 07/M06 A2976 RMK A01 T00721059  RH  039%=      5-min Rain = 0
KDO1 100959Z 36004KT 07/M06 A2976 RMK A01 T00731060  RH  038%=      5-min Rain = 0
KDO1 101000Z 35004KT 08/M06 A2976 RMK A01 T00751061  RH  038%=      5-min Rain = 0
KDO1 101001Z 35004KT 08/M06 A2976 RMK A01 T00751062  RH  037%=      5-min Rain = 0
KDO1 101002Z 35002KT 08/M06 A2976 RMK A01 T00751062  RH  037%=      5-min Rain = 0
KDO1 101003Z 33003KT 07/M06 A2976 RMK A01 T00731061  RH  038%=      5-min Rain = 0
KDO1 101004Z 33005KT 07/M06 A2976 RMK A01 T00691063  RH  039%=      5-min Rain = 0
KDO1 101005Z 33005KT 07/M06 A2976 RMK A01 T00661063  RH  039%=      5-min Rain = 0
KDO1 101006Z 33005KT 07/M06 A2976 RMK A01 T00661062  RH  040%=      5-min Rain = 0
KDO1 101007Z 32004KT 07/M06 A2976 RMK A01 T00661060  RH  040%=      5-min Rain = 0
KDO1 101008Z 32004KT 07/M06 A2976 RMK A01 T00661056  RH  041%=      5-min Rain = 0
KDO1 101009Z 34005KT 07/M05 A2976 RMK A01 T00661054  RH  042%=      5-min Rain = 0
KDO1 101010Z 35005KT 06/M05 A2976 RMK A01 T00641052  RH  043%=      5-min Rain = 0
KDO1 101011Z 00006KT 07/M05 A2976 RMK A01 T00651052  RH  043%=      5-min Rain = 0
KDO1 101012Z 00005KT 07/M05 A2976 RMK A01 T00671053  RH  042%=      5-min Rain = 0
KDO1 101013Z 00005KT 07/M05 A2976 RMK A01 T00701054  RH  041%=      5-min Rain = 0
KDO1 101014Z 35004KT 07/M06 A2976 RMK A01 T00711056  RH  040%=      5-min Rain = 0
KDO1 101015Z 33004KT 07/M06 A2976 RMK A01 T00711057  RH  040%=      5-min Rain = 0
KDO1 101016Z 33004KT 07/M06 A2977 RMK A01 T00711055  RH  040%=      5-min Rain = 0
KDO1 101017Z 33005KT 07/M06 A2977 RMK A01 T00711055  RH  040%=      5-min Rain = 0
KDO1 101018Z 33005KT 07/M06 A2977 RMK A01 T00721055  RH  040%=      5-min Rain = 0
KDO1 101019Z 33005KT 07/M06 A2976 RMK A01 T00731056  RH  039%=      5-min Rain = 0
KDO1 101020Z 34005KT 07/M06 A2976 RMK A01 T00731055  RH  040%=      5-min Rain = 0
KDO1 101021Z 35005KT 07/M05 A2976 RMK A01 T00711054  RH  041%=      5-min Rain = 0
KDO1 101022Z 35005KT 07/M05 A2976 RMK A01 T00701053  RH  041%=      5-min Rain = 0
KDO1 101023Z 36005KT 07/M06 A2976 RMK A01 T00691055  RH  041%=      5-min Rain = 0
KDO1 101024Z 35006KT 07/M06 A2976 RMK A01 T00701057  RH  040%=      5-min Rain = 0
KDO1 101025Z 35006KT 07/M06 A2976 RMK A01 T00701056  RH  040%=      5-min Rain = 0
KDO1 101026Z 35005KT 07/M05 A2976 RMK A01 T00721053  RH  041%=      5-min Rain = 0
KDO1 101027Z 35005KT 07/M05 A2976 RMK A01 T00741051  RH  041%=      5-min Rain = 0
KDO1 101028Z 35005KT 07/M05 A2976 RMK A01 T00741051  RH  041%=      5-min Rain = 0
KDO1 101029Z 35005KT 07/M05 A2976 RMK A01 T00741051  RH  041%=      5-min Rain = 0
KDO1 101030Z 34003KT 07/M05 A2977 RMK A01 T00711053  RH  041%=      5-min Rain = 0
KDO1 101031Z 33003KT 07/M05 A2977 RMK A01 T00671054  RH  042%=      5-min Rain = 0
KDO1 101032Z 34003KT 07/M05 A2977 RMK A01 T00651053  RH  043%=      5-min Rain = 0
KDO1 101033Z 34004KT 06/M05 A2977 RMK A01 T00641053  RH  043%=      5-min Rain = 0
KDO1 101034Z 34005KT 07/M05 A2977 RMK A01 T00651053  RH  042%=      5-min Rain = 0
KDO1 101035Z 34005KT 07/M06 A2977 RMK A01 T00681055  RH  041%=      5-min Rain = 0
KDO1 101036Z 35005KT 07/M06 A2977 RMK A01 T00711055  RH  040%=      5-min Rain = 0
KDO1 101037Z 35004KT 07/M05 A2977 RMK A01 T00731054  RH  040%=      5-min Rain = 0
KDO1 101038Z 35004KT 07/M05 A2977 RMK A01 T00731053  RH  040%=      5-min Rain = 0
KDO1 101039Z 35004KT 07/M05 A2977 RMK A01 T00711053  RH  041%=      5-min Rain = 0
KDO1 101040Z 00002KT 07/M05 A2977 RMK A01 T00691053  RH  041%=      5-min Rain = 0
KDO1 101041Z 36001KT 07/M06 A2977 RMK A01 T00671055  RH  041%=      5-min Rain = 0
KDO1 101042Z 35001KT 06/M06 A2977 RMK A01 T00641056  RH  042%=      5-min Rain = 0
KDO1 101043Z 00000KT 06/M05 A2977 RMK A01 T00611054  RH  043%=      5-min Rain = 0
KDO1 101044Z 00000KT 06/M05 A2977 RMK A01 T00581054  RH  044%=      5-min Rain = 0
KDO1 101045Z 34000KT 06/M05 A2977 RMK A01 T00561054  RH  045%=      5-min Rain = 0
KDO1 101046Z 34001KT 05/M06 A2977 RMK A01 T00541055  RH  045%=      5-min Rain = 0
KDO1 101047Z 33000KT 05/M06 A2977 RMK A01 T00511055  RH  046%=      5-min Rain = 0
KDO1 101048Z 21002KT 05/M06 A2977 RMK A01 T00481056  RH  047%=      5-min Rain = 0
KDO1 101049Z 25001KT 05/M06 A2977 RMK A01 T00451058  RH  047%=      5-min Rain = 0
KDO1 101050Z 28000KT 04/M06 A2977 RMK A01 T00431058  RH  048%=      5-min Rain = 0
KDO1 101051Z 24000KT 04/M06 A2977 RMK A01 T00411058  RH  048%=      5-min Rain = 0
KDO1 101052Z 23000KT 04/M06 A2977 RMK A01 T00401057  RH  049%=      5-min Rain = 0
KDO1 101053Z 00000KT 04/M06 A2977 RMK A01 T00391058  RH  049%=      5-min Rain = 0
KDO1 101054Z 00000KT 04/M06 A2977 RMK A01 T00391058  RH  049%=      5-min Rain = 0
KDO1 101055Z 00000KT 04/M06 A2977 RMK A01 T00391059  RH  049%=      5-min Rain = 0
KDO1 101056Z 00000KT 04/M06 A2977 RMK A01 T00391060  RH  049%=      5-min Rain = 0
KDO1 101057Z 00000KT 04/M06 A2977 RMK A01 T00391059  RH  049%=      5-min Rain = 0
KDO1 101058Z 00000KT 04/M06 A2977 RMK A01 T00391057  RH  049%=      5-min Rain = 0
KDO1 101059Z 00000KT 04/M06 A2977 RMK A01 T00391057  RH  049%=      5-min Rain = 0
KDO1 101100Z 00000KT 04/M06 A2977 RMK A01 T00391058  RH  049%=      5-min Rain = 0
KDO1 101101Z 00000KT 04/M06 A2977 RMK A01 T00391058  RH  049%=      5-min Rain = 0
KDO1 101102Z 00000KT 04/M06 A2977 RMK A01 T00401059  RH  049%=      5-min Rain = 0
KDO1 101103Z 00000KT 04/M06 A2977 RMK A01 T00401060  RH  048%=      5-min Rain = 0
KDO1 101104Z 00000KT 04/M06 A2977 RMK A01 T00411059  RH  048%=      5-min Rain = 0
KDO1 101105Z 00000KT 04/M06 A2977 RMK A01 T00431059  RH  048%=      5-min Rain = 0
KDO1 101106Z 00000KT 04/M06 A2977 RMK A01 T00441059  RH  047%=      5-min Rain = 0
KDO1 101107Z 00000KT 05/M06 A2977 RMK A01 T00451059  RH  047%=      5-min Rain = 0
KDO1 101108Z 00000KT 05/M06 A2977 RMK A01 T00471057  RH  047%=      5-min Rain = 0
KDO1 101109Z 35000KT 05/M06 A2977 RMK A01 T00481058  RH  046%=      5-min Rain = 0
KDO1 101110Z 00001KT 05/M06 A2977 RMK A01 T00491058  RH  046%=      5-min Rain = 0
KDO1 101111Z 01001KT 05/M06 A2977 RMK A01 T00501058  RH  046%=      5-min Rain = 0
KDO1 101112Z 01001KT 05/M06 A2978 RMK A01 T00501058  RH  045%=      5-min Rain = 0
KDO1 101113Z 01001KT 05/M06 A2978 RMK A01 T00511058  RH  045%=      5-min Rain = 0
KDO1 101114Z 35003KT 05/M06 A2978 RMK A01 T00521058  RH  045%=      5-min Rain = 0
KDO1 101115Z 34005KT 05/M06 A2978 RMK A01 T00531057  RH  045%=      5-min Rain = 0
KDO1 101116Z 34005KT 05/M06 A2978 RMK A01 T00541056  RH  045%=      5-min Rain = 0
KDO1 101117Z 34005KT 06/M06 A2978 RMK A01 T00551055  RH  045%=      5-min Rain = 0
KDO1 101118Z 35005KT 06/M05 A2978 RMK A01 T00581054  RH  045%=      5-min Rain = 0
KDO1 101119Z 35005KT 06/M05 A2978 RMK A01 T00591053  RH  044%=      5-min Rain = 0
KDO1 101120Z 35005KT 06/M05 A2978 RMK A01 T00601053  RH  044%=      5-min Rain = 0
KDO1 101121Z 35005KT 06/M05 A2978 RMK A01 T00611053  RH  044%=      5-min Rain = 0
KDO1 101122Z 35005KT 06/M05 A2978 RMK A01 T00621052  RH  044%=      5-min Rain = 0
KDO1 101123Z 35005KT 06/M05 A2978 RMK A01 T00631051  RH  044%=      5-min Rain = 0
KDO1 101124Z 34005KT 06/M05 A2978 RMK A01 T00641050  RH  044%=      5-min Rain = 0
KDO1 101125Z 34005KT 06/M05 A2978 RMK A01 T00641049  RH  044%=      5-min Rain = 0
KDO1 101126Z 34005KT 06/M05 A2978 RMK A01 T00641047  RH  045%=      5-min Rain = 0
KDO1 101127Z 34005KT 06/M05 A2979 RMK A01 T00641046  RH  045%=      5-min Rain = 0
KDO1 101128Z 34005KT 06/M05 A2979 RMK A01 T00641045  RH  046%=      5-min Rain = 0
KDO1 101129Z 35005KT 06/M04 A2979 RMK A01 T00641044  RH  046%=      5-min Rain = 0
KDO1 101130Z 35005KT 06/M04 A2979 RMK A01 T00641042  RH  047%=      5-min Rain = 0
KDO1 101131Z 35006KT 07/M04 A2979 RMK A01 T00661039  RH  047%=      5-min Rain = 0
KDO1 101132Z 34006KT 07/M04 A2979 RMK A01 T00671037  RH  047%=      5-min Rain = 0
KDO1 101133Z 34005KT 07/M04 A2979 RMK A01 T00691035  RH  047%=      5-min Rain = 0
KDO1 101134Z 34004KT 07/M03 A2979 RMK A01 T00701034  RH  048%=      5-min Rain = 0
KDO1 101135Z 34004KT 07/M04 A2979 RMK A01 T00711035  RH  047%=      5-min Rain = 0
KDO1 101136Z 34003KT 07/M03 A2979 RMK A01 T00701034  RH  047%=      5-min Rain = 0
KDO1 101137Z 35003KT 07/M03 A2979 RMK A01 T00711033  RH  048%=      5-min Rain = 0
KDO1 101138Z 00001KT 07/M04 A2979 RMK A01 T00701035  RH  047%=      5-min Rain = 0
KDO1 101139Z 00002KT 07/M04 A2979 RMK A01 T00691038  RH  046%=      5-min Rain = 0
KDO1 101140Z 35001KT 07/M04 A2979 RMK A01 T00681040  RH  046%=      5-min Rain = 0
KDO1 101141Z 34003KT 07/M04 A2979 RMK A01 T00671039  RH  047%=      5-min Rain = 0
KDO1 101142Z 34003KT 07/M04 A2979 RMK A01 T00661040  RH  047%=      5-min Rain = 0
KDO1 101143Z 34003KT 07/M04 A2979 RMK A01 T00651040  RH  047%=      5-min Rain = 0
KDO1 101144Z 34003KT 07/M04 A2979 RMK A01 T00651038  RH  048%=      5-min Rain = 0
KDO1 101145Z 35002KT 06/M04 A2979 RMK A01 T00641037  RH  048%=      5-min Rain = 0
KDO1 101146Z 36000KT 06/M04 A2979 RMK A01 T00631038  RH  048%=      5-min Rain = 0
KDO1 101147Z 00001KT 06/M04 A2979 RMK A01 T00631043  RH  047%=      5-min Rain = 0
KDO1 101148Z 00000KT 06/M05 A2979 RMK A01 T00621048  RH  045%=      5-min Rain = 0
KDO1 101149Z 36000KT 06/M05 A2979 RMK A01 T00611054  RH  044%=      5-min Rain = 0
KDO1 101150Z 36001KT 06/M05 A2979 RMK A01 T00591052  RH  045%=      5-min Rain = 0
KDO1 101151Z 35001KT 06/M05 A2979 RMK A01 T00581051  RH  045%=      5-min Rain = 0
KDO1 101152Z 34001KT 06/M05 A2979 RMK A01 T00571053  RH  045%=      5-min Rain = 0
KDO1 101153Z 35001KT 06/M05 A2979 RMK A01 T00561054  RH  045%=      5-min Rain = 0
KDO1 101154Z 35002KT 06/M06 A2979 RMK A01 T00561055  RH  045%=      5-min Rain = 0
KDO1 101155Z 36002KT 06/M06 A2979 RMK A01 T00551055  RH  045%=      5-min Rain = 0
KDO1 101156Z 35003KT 05/M05 A2979 RMK A01 T00541054  RH  045%=      5-min Rain = 0
KDO1 101157Z 35003KT 05/M05 A2978 RMK A01 T00541054  RH  046%=      5-min Rain = 0
KDO1 101158Z 36003KT 05/M05 A2978 RMK A01 T00541054  RH  046%=      5-min Rain = 0
KDO1 101159Z 35003KT 05/M05 A2978 RMK A01 T00531050  RH  047%=      5-min Rain = 0
KDO1 101200Z 35003KT 05/M04 A2978 RMK A01 T00531041  RH  051%=      5-min Rain = 0
KDO1 101201Z 35004KT 05/M04 A2978 RMK A01 T00541036  RH  052%=      5-min Rain = 0
KDO1 101202Z 34004KT 06/M03 A2978 RMK A01 T00561031  RH  053%=      5-min Rain = 0
KDO1 101203Z 34004KT 06/M03 A2978 RMK A01 T00591028  RH  054%=      5-min Rain = 0
KDO1 101204Z 34004KT 06/M03 A2978 RMK A01 T00621027  RH  053%=      5-min Rain = 0
KDO1 101205Z 34004KT 06/M03 A2978 RMK A01 T00641027  RH  052%=      5-min Rain = 0
KDO1 101206Z 35004KT 07/M03 A2978 RMK A01 T00661028  RH  051%=      5-min Rain = 0
KDO1 101207Z 35003KT 07/M03 A2978 RMK A01 T00671028  RH  051%=      5-min Rain = 0
KDO1 101208Z 35003KT 07/M03 A2978 RMK A01 T00671030  RH  050%=      5-min Rain = 0
KDO1 101209Z 34003KT 07/M03 A2978 RMK A01 T00671030  RH  050%=      5-min Rain = 0
KDO1 101210Z 33002KT 07/M03 A2978 RMK A01 T00671029  RH  050%=      5-min Rain = 0
KDO1 101211Z 33003KT 07/M03 A2978 RMK A01 T00661031  RH  050%=      5-min Rain = 0
KDO1 101212Z 33003KT 06/M03 A2978 RMK A01 T00631033  RH  050%=      5-min Rain = 0
KDO1 101213Z 34003KT 06/M03 A2978 RMK A01 T00601034  RH  051%=      5-min Rain = 0
KDO1 101214Z 34003KT 06/M03 A2978 RMK A01 T00591032  RH  052%=      5-min Rain = 0
KDO1 101215Z 35003KT 06/M03 A2978 RMK A01 T00591032  RH  052%=      5-min Rain = 0
KDO1 101216Z 02002KT 06/M03 A2978 RMK A01 T00591032  RH  052%=      5-min Rain = 0
KDO1 101217Z 04002KT 06/M03 A2978 RMK A01 T00591031  RH  053%=      5-min Rain = 0
KDO1 101218Z 05001KT 06/M03 A2978 RMK A01 T00591031  RH  052%=      5-min Rain = 0
KDO1 101219Z 03002KT 06/M04 A2978 RMK A01 T00561037  RH  051%=      5-min Rain = 0
KDO1 101220Z 02002KT 05/M04 A2979 RMK A01 T00531038  RH  052%=      5-min Rain = 0
KDO1 101221Z 01001KT 05/M04 A2979 RMK A01 T00521039  RH  052%=      5-min Rain = 0
KDO1 101222Z 01000KT 05/M04 A2979 RMK A01 T00501040  RH  052%=      5-min Rain = 0
KDO1 101223Z 00000KT 05/M04 A2979 RMK A01 T00481038  RH  054%=      5-min Rain = 0
KDO1 101224Z 00000KT 05/M04 A2979 RMK A01 T00481036  RH  055%=      5-min Rain = 0
KDO1 101225Z 00000KT 05/M04 A2979 RMK A01 T00481039  RH  053%=      5-min Rain = 0
KDO1 101226Z 00000KT 05/M04 A2979 RMK A01 T00491042  RH  052%=      5-min Rain = 0
KDO1 101227Z 00000KT 05/M05 A2979 RMK A01 T00501046  RH  050%=      5-min Rain = 0
KDO1 101228Z 00000KT 05/M05 A2979 RMK A01 T00511047  RH  049%=      5-min Rain = 0
KDO1 101229Z 00000KT 05/M05 A2979 RMK A01 T00511048  RH  049%=      5-min Rain = 0
KDO1 101230Z 00000KT 05/M05 A2979 RMK A01 T00491051  RH  048%=      5-min Rain = 0
KDO1 101231Z 00000KT 05/M05 A2979 RMK A01 T00481053  RH  048%=      5-min Rain = 0
KDO1 101232Z 00000KT 05/M05 A2979 RMK A01 T00471053  RH  048%=      5-min Rain = 0
KDO1 101233Z 00000KT 05/M05 A2979 RMK A01 T00451053  RH  049%=      5-min Rain = 0
KDO1 101234Z 00000KT 04/M05 A2979 RMK A01 T00441052  RH  049%=      5-min Rain = 0
KDO1 101235Z 00000KT 04/M05 A2979 RMK A01 T00431053  RH  050%=      5-min Rain = 0
KDO1 101236Z 29000KT 04/M05 A2979 RMK A01 T00421052  RH  050%=      5-min Rain = 0
KDO1 101237Z 32000KT 04/M05 A2979 RMK A01 T00421052  RH  050%=      5-min Rain = 0
KDO1 101238Z 32001KT 04/M05 A2979 RMK A01 T00411053  RH  051%=      5-min Rain = 0
KDO1 101239Z 33002KT 04/M05 A2979 RMK A01 T00411053  RH  050%=      5-min Rain = 0
KDO1 101240Z 34002KT 04/M05 A2979 RMK A01 T00401054  RH  050%=      5-min Rain = 0
KDO1 101241Z 34002KT 04/M05 A2979 RMK A01 T00401054  RH  050%=      5-min Rain = 0
KDO1 101242Z 34001KT 04/M05 A2979 RMK A01 T00411054  RH  050%=      5-min Rain = 0
KDO1 101243Z 34002KT 04/M05 A2979 RMK A01 T00421054  RH  050%=      5-min Rain = 0
KDO1 101244Z 34002KT 04/M06 A2979 RMK A01 T00441055  RH  049%=      5-min Rain = 0
KDO1 101245Z 34003KT 05/M06 A2979 RMK A01 T00451056  RH  048%=      5-min Rain = 0
KDO1 101246Z 35003KT 05/M06 A2979 RMK A01 T00461055  RH  048%=      5-min Rain = 0
KDO1 101247Z 00002KT 05/M05 A2979 RMK A01 T00461054  RH  048%=      5-min Rain = 0
KDO1 101248Z 01002KT 05/M05 A2979 RMK A01 T00461054  RH  048%=      5-min Rain = 0
KDO1 101249Z 01002KT 05/M05 A2979 RMK A01 T00461053  RH  048%=      5-min Rain = 0
KDO1 101250Z 02002KT 05/M05 A2979 RMK A01 T00471052  RH  049%=      5-min Rain = 0
KDO1 101251Z 03002KT 05/M04 A2979 RMK A01 T00481044  RH  051%=      5-min Rain = 0
KDO1 101252Z 04002KT 05/M04 A2979 RMK A01 T00511036  RH  054%=      5-min Rain = 0
KDO1 101253Z 04002KT 05/M03 A2979 RMK A01 T00531032  RH  054%=      5-min Rain = 0
KDO1 101254Z 03002KT 06/M03 A2979 RMK A01 T00551032  RH  053%=      5-min Rain = 0
KDO1 101255Z 01002KT 06/M03 A2979 RMK A01 T00561034  RH  053%=      5-min Rain = 0
KDO1 101256Z 00003KT 06/M03 A2979 RMK A01 T00561034  RH  052%=      5-min Rain = 0
KDO1 101257Z 00002KT 06/M03 A2979 RMK A01 T00561031  RH  053%=      5-min Rain = 0
KDO1 101258Z 36003KT 06/M02 A2979 RMK A01 T00571024  RH  056%=      5-min Rain = 0
KDO1 101259Z 35003KT 06/M02 A2979 RMK A01 T00581017  RH  058%=      5-min Rain = 0
KDO1 101300Z 35004KT 06/M02 A2979 RMK A01 T00601018  RH  057%=      5-min Rain = 0
KDO1 101301Z 35004KT 06/M02 A2979 RMK A01 T00611018  RH  057%=      5-min Rain = 0
KDO1 101302Z 35004KT 06/M02 A2979 RMK A01 T00611016  RH  058%=      5-min Rain = 0
KDO1 101303Z 35004KT 06/M01 A2979 RMK A01 T00611014  RH  058%=      5-min Rain = 0
KDO1 101304Z 00004KT 06/M02 A298 RMK A01 T00611015  RH  058%=      5-min Rain = 0
KDO1 101305Z 00004KT 06/M02 A298 RMK A01 T00611018  RH  057%=      5-min Rain = 0
KDO1 101306Z 36004KT 06/M02 A298 RMK A01 T00591019  RH  057%=      5-min Rain = 0
KDO1 101307Z 36004KT 06/M02 A298 RMK A01 T00581018  RH  058%=      5-min Rain = 0
KDO1 101308Z 36003KT 06/M02 A298 RMK A01 T00571018  RH  058%=      5-min Rain = 0
KDO1 101309Z 35003KT 06/M02 A298 RMK A01 T00571020  RH  058%=      5-min Rain = 0
KDO1 101310Z 35003KT 06/M02 A298 RMK A01 T00551022  RH  058%=      5-min Rain = 0
KDO1 101311Z 35003KT 05/M02 A298 RMK A01 T00541022  RH  058%=      5-min Rain = 0
KDO1 101312Z 35003KT 05/M02 A298 RMK A01 T00531021  RH  059%=      5-min Rain = 0
KDO1 101313Z 34003KT 05/M02 A298 RMK A01 T00521019  RH  060%=      5-min Rain = 0
KDO1 101314Z 33003KT 05/M02 A298 RMK A01 T00521017  RH  061%=      5-min Rain = 0
KDO1 101315Z 32003KT 05/M02 A298 RMK A01 T00531017  RH  061%=      5-min Rain = 0
KDO1 101316Z 33004KT 05/M02 A298 RMK A01 T00541016  RH  061%=      5-min Rain = 0
KDO1 101317Z 33004KT 05/M02 A298 RMK A01 T00541015  RH  061%=      5-min Rain = 0
KDO1 101318Z 33004KT 05/M02 A298 RMK A01 T00541015  RH  061%=      5-min Rain = 0
KDO1 101319Z 33004KT 05/M02 A298 RMK A01 T00541015  RH  061%=      5-min Rain = 0
KDO1 101320Z 32004KT 06/M01 A298 RMK A01 T00551012  RH  062%=      5-min Rain = 0
KDO1 101321Z 33004KT 06/M01 A298 RMK A01 T00571011  RH  062%=      5-min Rain = 0
KDO1 101322Z 34004KT 06/M01 A298 RMK A01 T00581011  RH  061%=      5-min Rain = 0
KDO1 101323Z 34004KT 06/M01 A298 RMK A01 T00591011  RH  061%=      5-min Rain = 0
KDO1 101324Z 34004KT 06/M01 A298 RMK A01 T00601011  RH  060%=      5-min Rain = 0
KDO1 101325Z 34003KT 06/M01 A298 RMK A01 T00611012  RH  060%=      5-min Rain = 0
KDO1 101326Z 35002KT 06/M01 A298 RMK A01 T00601014  RH  059%=      5-min Rain = 0
KDO1 101327Z 34003KT 06/M01 A298 RMK A01 T00581013  RH  060%=      5-min Rain = 0
KDO1 101328Z 34002KT 06/M01 A298 RMK A01 T00591010  RH  061%=      5-min Rain = 0
KDO1 101329Z 35003KT 06/M01 A298 RMK A01 T00601009  RH  061%=      5-min Rain = 0
KDO1 101330Z 36003KT 06/M01 A298 RMK A01 T00611009  RH  061%=      5-min Rain = 0
KDO1 101331Z 36003KT 06/M01 A298 RMK A01 T00611009  RH  061%=      5-min Rain = 0
KDO1 101332Z 36004KT 06/M01 A298 RMK A01 T00611009  RH  061%=      5-min Rain = 0
KDO1 101333Z 36005KT 06/M01 A298 RMK A01 T00611009  RH  061%=      5-min Rain = 0
KDO1 101334Z 35005KT 06/M01 A298 RMK A01 T00601011  RH  060%=      5-min Rain = 0
KDO1 101335Z 35004KT 06/M01 A298 RMK A01 T00591012  RH  061%=      5-min Rain = 0
KDO1 101336Z 34004KT 06/M01 A298 RMK A01 T00571011  RH  061%=      5-min Rain = 0
KDO1 101337Z 33004KT 06/M01 A298 RMK A01 T00571010  RH  062%=      5-min Rain = 0
KDO1 101338Z 33004KT 06/M01 A298 RMK A01 T00561010  RH  062%=      5-min Rain = 0
KDO1 101339Z 32004KT 06/M01 A298 RMK A01 T00561009  RH  063%=      5-min Rain = 0
KDO1 101340Z 31004KT 06/M01 A298 RMK A01 T00571009  RH  062%=      5-min Rain = 0
KDO1 101341Z 31004KT 06/M01 A298 RMK A01 T00581008  RH  062%=      5-min Rain = 0
KDO1 101342Z 31004KT 06/M01 A298 RMK A01 T00591009  RH  062%=      5-min Rain = 0
KDO1 101343Z 31005KT 06/M01 A298 RMK A01 T00611007  RH  062%=      5-min Rain = 0
KDO1 101344Z 31004KT 06/M00 A298 RMK A01 T00641002  RH  063%=      5-min Rain = 0
KDO1 101345Z 31005KT 07/00 A298 RMK A01 T00670002  RH  063%=      5-min Rain = 0
KDO1 101346Z 31005KT 07/00 A298 RMK A01 T00690002  RH  062%=      5-min Rain = 0
KDO1 101347Z 31005KT 07/00 A298 RMK A01 T00710003  RH  062%=      5-min Rain = 0
KDO1 101348Z 32005KT 07/00 A298 RMK A01 T00730004  RH  061%=      5-min Rain = 0
KDO1 101349Z 32005KT 07/00 A298 RMK A01 T00740004  RH  061%=      5-min Rain = 0
KDO1 101350Z 32005KT 08/01 A298 RMK A01 T00750005  RH  061%=      5-min Rain = 0
KDO1 101351Z 32005KT 08/00 A298 RMK A01 T00770004  RH  060%=      5-min Rain = 0
KDO1 101352Z 31005KT 08/01 A298 RMK A01 T00780005  RH  060%=      5-min Rain = 0
KDO1 101353Z 32004KT 08/01 A298 RMK A01 T00780005  RH  060%=      5-min Rain = 0
KDO1 101354Z 32004KT 08/01 A298 RMK A01 T00790005  RH  060%=      5-min Rain = 0
KDO1 101355Z 33004KT 08/00 A298 RMK A01 T00790004  RH  059%=      5-min Rain = 0
KDO1 101356Z 34004KT 08/00 A298 RMK A01 T00790003  RH  059%=      5-min Rain = 0
KDO1 101357Z 34003KT 08/00 A298 RMK A01 T00780003  RH  059%=      5-min Rain = 0
KDO1 101358Z 35002KT 08/00 A298 RMK A01 T00780004  RH  059%=      5-min Rain = 0
KDO1 101359Z 35002KT 08/00 A298 RMK A01 T00780004  RH  059%=      5-min Rain = 0
KDO1 101400Z 34002KT 08/00 A298 RMK A01 T00790004  RH  059%=      5-min Rain = 0
KDO1 101401Z 33002KT 08/01 A298 RMK A01 T00800005  RH  059%=      5-min Rain = 0
KDO1 101402Z 33002KT 08/01 A298 RMK A01 T00800006  RH  059%=      5-min Rain = 0
KDO1 101403Z 33002KT 08/01 A2981 RMK A01 T00810006  RH  059%=      5-min Rain = 0
KDO1 101404Z 34001KT 08/01 A2981 RMK A01 T00820007  RH  059%=      5-min Rain = 0
KDO1 101405Z 35001KT 08/01 A2981 RMK A01 T00830008  RH  059%=      5-min Rain = 0
KDO1 101406Z 36001KT 08/01 A2981 RMK A01 T00840008  RH  059%=      5-min Rain = 0
KDO1 101407Z 00001KT 08/01 A2981 RMK A01 T00840005  RH  058%=      5-min Rain = 0
KDO1 101408Z 00001KT 08/00 A2981 RMK A01 T008400-0  RH  055%=      5-min Rain = 0
KDO1 101409Z 34001KT 08/M00 A2981 RMK A01 T00831002  RH  055%=      5-min Rain = 0
KDO1 101410Z 33001KT 08/M00 A298 RMK A01 T00821001  RH  056%=      5-min Rain = 0
KDO1 101411Z 33001KT 08/00 A298 RMK A01 T008200-0  RH  056%=      5-min Rain = 0
KDO1 101412Z 33000KT 08/00 A298 RMK A01 T008200-0  RH  056%=      5-min Rain = 0
KDO1 101413Z 00000KT 08/00 A298 RMK A01 T008200-0  RH  056%=      5-min Rain = 0
KDO1 101414Z 00000KT 08/00 A298 RMK A01 T00830000  RH  056%=      5-min Rain = 0
KDO1 101415Z 00000KT 08/00 A298 RMK A01 T00840000  RH  056%=      5-min Rain = 0
KDO1 101416Z 00000KT 08/00 A298 RMK A01 T008300-0  RH  056%=      5-min Rain = 0
KDO1 101417Z 00000KT 08/00 A298 RMK A01 T008400-0  RH  055%=      5-min Rain = 0
KDO1 101418Z 00000KT 08/00 A298 RMK A01 T00840000  RH  056%=      5-min Rain = 0
KDO1 101419Z 00000KT 09/00 A298 RMK A01 T00850001  RH  055%=      5-min Rain = 0
KDO1 101420Z 34000KT 09/00 A2981 RMK A01 T00860002  RH  055%=      5-min Rain = 0
KDO1 101421Z 33002KT 09/00 A2981 RMK A01 T00870002  RH  055%=      5-min Rain = 0
KDO1 101422Z 33002KT 09/00 A2981 RMK A01 T00880003  RH  055%=      5-min Rain = 0
KDO1 101423Z 33002KT 09/01 A2981 RMK A01 T00880005  RH  056%=      5-min Rain = 0
KDO1 101424Z 31002KT 09/01 A2981 RMK A01 T00900009  RH  057%=      5-min Rain = 0
KDO1 101425Z 32002KT 09/01 A2981 RMK A01 T00910012  RH  058%=      5-min Rain = 0
KDO1 101426Z 34002KT 09/01 A2981 RMK A01 T00920012  RH  057%=      5-min Rain = 0
KDO1 101427Z 34001KT 09/01 A2981 RMK A01 T00930011  RH  056%=      5-min Rain = 0
KDO1 101428Z 33002KT 09/01 A2981 RMK A01 T00940011  RH  056%=      5-min Rain = 0
KDO1 101429Z 33002KT 10/01 A2981 RMK A01 T00950012  RH  056%=      5-min Rain = 0
KDO1 101430Z 33002KT 10/01 A2981 RMK A01 T00960013  RH  056%=      5-min Rain = 0
KDO1 101431Z 34002KT 10/01 A2981 RMK A01 T00970014  RH  056%=      5-min Rain = 0
KDO1 101432Z 35002KT 10/02 A2981 RMK A01 T00990016  RH  056%=      5-min Rain = 0
KDO1 101433Z 36002KT 10/02 A2981 RMK A01 T01000016  RH  056%=      5-min Rain = 0
KDO1 101434Z 03001KT 10/02 A2981 RMK A01 T01020017  RH  056%=      5-min Rain = 0
KDO1 101435Z 01000KT 10/02 A2981 RMK A01 T01040018  RH  055%=      5-min Rain = 0
KDO1 101436Z 35000KT 11/02 A2982 RMK A01 T01060018  RH  055%=      5-min Rain = 0
KDO1 101437Z 00002KT 11/02 A2982 RMK A01 T01080018  RH  054%=      5-min Rain = 0
KDO1 101438Z 36002KT 11/02 A2982 RMK A01 T01100018  RH  053%=      5-min Rain = 0
KDO1 101439Z 35002KT 11/02 A2982 RMK A01 T01120017  RH  052%=      5-min Rain = 0
KDO1 101440Z 34004KT 12/02 A2982 RMK A01 T01150016  RH  051%=      5-min Rain = 0
KDO1 101441Z 34004KT 12/01 A2982 RMK A01 T01170014  RH  049%=      5-min Rain = 0
KDO1 101442Z 34004KT 12/01 A2982 RMK A01 T01190013  RH  048%=      5-min Rain = 0
KDO1 101443Z 34004KT 12/01 A2982 RMK A01 T01210007  RH  046%=      5-min Rain = 0
KDO1 101444Z 34004KT 12/01 A2982 RMK A01 T01230005  RH  044%=      5-min Rain = 0
KDO1 101445Z 33004KT 12/00 A2982 RMK A01 T01240004  RH  043%=      5-min Rain = 0
KDO1 101446Z 33003KT 13/00 A2982 RMK A01 T01260003  RH  043%=      5-min Rain = 0
KDO1 101447Z 33003KT 13/00 A2982 RMK A01 T01260002  RH  043%=      5-min Rain = 0
KDO1 101448Z 32003KT 13/00 A2982 RMK A01 T01270000  RH  042%=      5-min Rain = 0
KDO1 101449Z 32003KT 13/00 A2982 RMK A01 T01280001  RH  042%=      5-min Rain = 0
KDO1 101450Z 32004KT 13/00 A2982 RMK A01 T01290000  RH  041%=      5-min Rain = 0
KDO1 101451Z 32003KT 13/M00 A2982 RMK A01 T01291001  RH  041%=      5-min Rain = 0
KDO1 101452Z 32004KT 13/M00 A2982 RMK A01 T01301001  RH  041%=      5-min Rain = 0
KDO1 101453Z 33005KT 13/M00 A2982 RMK A01 T01311004  RH  039%=      5-min Rain = 0
KDO1 101454Z 33004KT 13/M01 A2982 RMK A01 T01311008  RH  038%=      5-min Rain = 0
KDO1 101455Z 34006KT 13/M01 A2982 RMK A01 T01311011  RH  037%=      5-min Rain = 0
KDO1 101456Z 33006KT 13/M01 A2982 RMK A01 T01311014  RH  036%=      5-min Rain = 0
KDO1 101457Z 33005KT 13/M02 A2982 RMK A01 T01311017  RH  036%=      5-min Rain = 0
KDO1 101458Z 34004KT 13/M02 A2982 RMK A01 T01311016  RH  036%=      5-min Rain = 0
KDO1 101459Z 34005KT 13/M02 A2982 RMK A01 T01321015  RH  036%=      5-min Rain = 0
KDO1 101500Z 34005KT 13/M01 A2982 RMK A01 T01321014  RH  036%=      5-min Rain = 0
KDO1 101501Z 34005KT 13/M02 A2982 RMK A01 T01321017  RH  036%=      5-min Rain = 0
KDO1 101502Z 34004KT 13/M02 A2982 RMK A01 T01321018  RH  035%=      5-min Rain = 0
KDO1 101503Z 34005KT 13/M02 A2982 RMK A01 T01331018  RH  035%=      5-min Rain = 0
KDO1 101504Z 34005KT 13/M02 A2982 RMK A01 T01341019  RH  035%=      5-min Rain = 0
KDO1 101505Z 34005KT 14/M02 A2982 RMK A01 T01351018  RH  035%=      5-min Rain = 0
KDO1 101506Z 35004KT 14/M02 A2982 RMK A01 T01361019  RH  034%=      5-min Rain = 0
KDO1 101507Z 35005KT 14/M02 A2982 RMK A01 T01371019  RH  034%=      5-min Rain = 0
KDO1 101508Z 34004KT 14/M02 A2982 RMK A01 T01381022  RH  033%=      5-min Rain = 0
KDO1 101509Z 33004KT 14/M02 A2982 RMK A01 T01391020  RH  033%=      5-min Rain = 0
KDO1 101510Z 32005KT 14/M02 A2982 RMK A01 T01411022  RH  032%=      5-min Rain = 0
KDO1 101511Z 33004KT 14/M02 A2982 RMK A01 T01421022  RH  032%=      5-min Rain = 0
KDO1 101512Z 32004KT 14/M02 A2982 RMK A01 T01441018  RH  033%=      5-min Rain = 0
KDO1 101513Z 32006KT 15/M02 A2982 RMK A01 T01451022  RH  032%=      5-min Rain = 0
KDO1 101514Z 33006KT 15/M02 A2982 RMK A01 T01451022  RH  032%=      5-min Rain = 0
KDO1 101515Z 33007KT 15/M02 A2982 RMK A01 T01451021  RH  032%=      5-min Rain = 0
KDO1 101516Z 33005KT 15/M02 A2982 RMK A01 T01461020  RH  032%=      5-min Rain = 0
KDO1 101517Z 34007KT 15/M02 A2982 RMK A01 T01471019  RH  032%=      5-min Rain = 0
KDO1 101518Z 34008KT 15/M02 A2982 RMK A01 T01471020  RH  031%=      5-min Rain = 0
KDO1 101519Z 33007KT 15/M02 A2982 RMK A01 T01481020  RH  031%=      5-min Rain = 0
KDO1 101520Z 33007KT 15/M02 A2982 RMK A01 T01481020  RH  031%=      5-min Rain = 0
KDO1 101521Z 33006KT 15/M02 A2982 RMK A01 T01481020  RH  031%=      5-min Rain = 0
KDO1 101522Z 32006KT 15/M02 A2982 RMK A01 T01491018  RH  032%=      5-min Rain = 0
KDO1 101523Z 32006KT 15/M02 A2982 RMK A01 T01501023  RH  030%=      5-min Rain = 0
KDO1 101524Z 32005KT 15/M02 A2982 RMK A01 T01501022  RH  030%=      5-min Rain = 0
KDO1 101525Z 33004KT 15/M02 A2982 RMK A01 T01511020  RH  031%=      5-min Rain = 0
KDO1 101526Z 33004KT 15/M02 A2982 RMK A01 T01531019  RH  031%=      5-min Rain = 0
KDO1 101527Z 32003KT 15/M02 A2982 RMK A01 T01531022  RH  030%=      5-min Rain = 0
KDO1 101528Z 32004KT 15/M02 A2982 RMK A01 T01531023  RH  030%=      5-min Rain = 0
KDO1 101529Z 34003KT 15/M02 A2982 RMK A01 T01531020  RH  030%=      5-min Rain = 0
KDO1 101530Z 35004KT 15/M02 A2982 RMK A01 T01541019  RH  031%=      5-min Rain = 0
KDO1 101531Z 00005KT 16/M02 A2982 RMK A01 T01551017  RH  031%=      5-min Rain = 0
KDO1 101532Z 36003KT 16/M02 A2982 RMK A01 T01561016  RH  031%=      5-min Rain = 0
KDO1 101533Z 34003KT 16/M01 A2982 RMK A01 T01581014  RH  031%=      5-min Rain = 0
KDO1 101534Z 34003KT 16/M02 A2981 RMK A01 T01591015  RH  030%=      5-min Rain = 0
KDO1 101535Z 35003KT 16/M01 A2981 RMK A01 T01601014  RH  030%=      5-min Rain = 0
KDO1 101536Z 35003KT 16/M02 A2981 RMK A01 T01611016  RH  030%=      5-min Rain = 0
KDO1 101537Z 35002KT 16/M02 A2981 RMK A01 T01601015  RH  030%=      5-min Rain = 0
KDO1 101538Z 35004KT 16/M01 A2981 RMK A01 T01611014  RH  030%=      5-min Rain = 0
KDO1 101539Z 35003KT 16/M01 A2981 RMK A01 T01611014  RH  030%=      5-min Rain = 0
KDO1 101540Z 34003KT 16/M01 A2981 RMK A01 T01621013  RH  030%=      5-min Rain = 0
KDO1 101541Z 32003KT 16/M02 A2981 RMK A01 T01631015  RH  030%=      5-min Rain = 0
KDO1 101542Z 33003KT 16/M01 A2981 RMK A01 T01641012  RH  030%=      5-min Rain = 0
KDO1 101543Z 35004KT 17/M01 A2981 RMK A01 T01651012  RH  030%=      5-min Rain = 0
KDO1 101544Z 35003KT 17/M01 A2981 RMK A01 T01651014  RH  029%=      5-min Rain = 0
KDO1 101545Z 33002KT 17/M01 A2981 RMK A01 T01661014  RH  029%=      5-min Rain = 0
KDO1 101546Z 33002KT 17/M01 A2981 RMK A01 T01671012  RH  030%=      5-min Rain = 0
KDO1 101547Z 35003KT 17/M01 A2981 RMK A01 T01681011  RH  029%=      5-min Rain = 0
KDO1 101548Z 04001KT 17/M01 A2981 RMK A01 T01701012  RH  029%=      5-min Rain = 0
KDO1 101549Z 03002KT 17/M02 A2981 RMK A01 T01721016  RH  028%=      5-min Rain = 0
KDO1 101550Z 05001KT 17/M02 A2981 RMK A01 T01721016  RH  028%=      5-min Rain = 0
KDO1 101551Z 35000KT 17/M01 A2981 RMK A01 T01731011  RH  029%=      5-min Rain = 0
KDO1 101552Z 35003KT 18/M01 A2981 RMK A01 T01751011  RH  028%=      5-min Rain = 0
KDO1 101553Z 35001KT 18/M02 A2981 RMK A01 T01751015  RH  027%=      5-min Rain = 0
KDO1 101554Z 00000KT 18/M02 A2981 RMK A01 T01751015  RH  028%=      5-min Rain = 0
KDO1 101555Z 04000KT 18/M01 A2981 RMK A01 T01761010  RH  028%=      5-min Rain = 0
KDO1 101556Z 03001KT 18/M01 A2981 RMK A01 T01781005  RH  029%=      5-min Rain = 0
KDO1 101557Z 03001KT 18/M00 A2981 RMK A01 T01791003  RH  029%=      5-min Rain = 0
KDO1 101558Z 03000KT 18/M00 A2981 RMK A01 T01791003  RH  029%=      5-min Rain = 0
KDO1 101559Z 33000KT 18/M00 A2981 RMK A01 T01801002  RH  029%=      5-min Rain = 0
KDO1 101600Z 32002KT 18/M00 A2981 RMK A01 T01801001  RH  029%=      5-min Rain = 0
KDO1 101601Z 31003KT 18/00 A2981 RMK A01 T01810003  RH  030%=      5-min Rain = 0
KDO1 101602Z 29002KT 18/00 A2981 RMK A01 T01810002  RH  030%=      5-min Rain = 0
KDO1 101603Z 30002KT 18/00 A2981 RMK A01 T01820001  RH  030%=      5-min Rain = 0
KDO1 101604Z 33002KT 18/00 A2981 RMK A01 T01820004  RH  030%=      5-min Rain = 0
KDO1 101605Z 31001KT 18/00 A2981 RMK A01 T01810001  RH  030%=      5-min Rain = 0
KDO1 101606Z 32001KT 18/00 A2981 RMK A01 T01820002  RH  030%=      5-min Rain = 0
KDO1 101607Z 26001KT 18/00 A2981 RMK A01 T01830002  RH  030%=      5-min Rain = 0
KDO1 101608Z 27001KT 18/01 A2981 RMK A01 T01830005  RH  030%=      5-min Rain = 0
KDO1 101609Z 30000KT 18/01 A2981 RMK A01 T01830007  RH  030%=      5-min Rain = 0
KDO1 101610Z 00000KT 19/01 A2981 RMK A01 T01850009  RH  031%=      5-min Rain = 0
KDO1 101611Z 00000KT 19/01 A2981 RMK A01 T01860010  RH  031%=      5-min Rain = 0
KDO1 101612Z 22000KT 19/01 A2981 RMK A01 T01870010  RH  030%=      5-min Rain = 0
KDO1 101613Z 00000KT 19/01 A2981 RMK A01 T01880010  RH  030%=      5-min Rain = 0
KDO1 101614Z 27000KT 19/01 A2981 RMK A01 T01880011  RH  030%=      5-min Rain = 0
KDO1 101615Z 25002KT 19/01 A2981 RMK A01 T01890010  RH  030%=      5-min Rain = 0
KDO1 101616Z 24002KT 19/01 A2981 RMK A01 T01890009  RH  030%=      5-min Rain = 0
KDO1 101617Z 25002KT 19/01 A298 RMK A01 T01890010  RH  030%=      5-min Rain = 0
KDO1 101618Z 22002KT 19/01 A298 RMK A01 T01890010  RH  030%=      5-min Rain = 0
KDO1 101619Z 25002KT 19/01 A298 RMK A01 T01890010  RH  030%=      5-min Rain = 0
KDO1 101620Z 23002KT 19/01 A298 RMK A01 T01890010  RH  030%=      5-min Rain = 0
KDO1 101621Z 23001KT 19/01 A298 RMK A01 T01900012  RH  030%=      5-min Rain = 0
KDO1 101622Z 22001KT 19/01 A298 RMK A01 T01910012  RH  030%=      5-min Rain = 0
KDO1 101623Z 19001KT 19/01 A298 RMK A01 T01920012  RH  030%=      5-min Rain = 0
KDO1 101624Z 17002KT 19/01 A298 RMK A01 T01930013  RH  030%=      5-min Rain = 0
KDO1 101625Z 18002KT 19/02 A298 RMK A01 T01940015  RH  030%=      5-min Rain = 0
KDO1 101626Z 19002KT 19/02 A298 RMK A01 T01930015  RH  030%=      5-min Rain = 0
KDO1 101627Z 19002KT 19/02 A298 RMK A01 T01930015  RH  030%=      5-min Rain = 0
KDO1 101628Z 27001KT 19/02 A298 RMK A01 T01940016  RH  031%=      5-min Rain = 0
KDO1 101629Z 32000KT 19/02 A298 RMK A01 T01940018  RH  031%=      5-min Rain = 0
KDO1 101630Z 22001KT 20/02 A298 RMK A01 T01960017  RH  030%=      5-min Rain = 0
KDO1 101631Z 23003KT 20/01 A298 RMK A01 T01970014  RH  030%=      5-min Rain = 0
KDO1 101632Z 24003KT 20/01 A298 RMK A01 T01970012  RH  029%=      5-min Rain = 0
KDO1 101633Z 21002KT 20/01 A298 RMK A01 T01960011  RH  029%=      5-min Rain = 0
KDO1 101634Z 23004KT 20/01 A298 RMK A01 T01960012  RH  029%=      5-min Rain = 0
KDO1 101635Z 24003KT 20/02 A298 RMK A01 T01970015  RH  030%=      5-min Rain = 0
KDO1 101636Z 19000KT 20/01 A298 RMK A01 T01970013  RH  029%=      5-min Rain = 0
KDO1 101637Z 24001KT 20/02 A298 RMK A01 T01960015  RH  030%=      5-min Rain = 0
KDO1 101638Z 23003KT 20/02 A2979 RMK A01 T01980017  RH  030%=      5-min Rain = 0
KDO1 101639Z 24002KT 20/02 A2979 RMK A01 T01990015  RH  029%=      5-min Rain = 0
KDO1 101640Z 28000KT 20/01 A2979 RMK A01 T01990014  RH  029%=      5-min Rain = 0
KDO1 101641Z 35001KT 20/01 A2979 RMK A01 T01980014  RH  029%=      5-min Rain = 0
KDO1 101642Z 30002KT 20/02 A2979 RMK A01 T01980015  RH  029%=      5-min Rain = 0
KDO1 101643Z 32003KT 20/02 A2979 RMK A01 T01980015  RH  029%=      5-min Rain = 0
KDO1 101644Z 12002KT 20/01 A2979 RMK A01 T01990014  RH  029%=      5-min Rain = 0
KDO1 101645Z 19004KT 20/01 A2979 RMK A01 T02010013  RH  029%=      5-min Rain = 0
KDO1 101646Z 18002KT 20/01 A2979 RMK A01 T02010011  RH  028%=      5-min Rain = 0
KDO1 101647Z 19001KT 20/01 A2979 RMK A01 T02010011  RH  028%=      5-min Rain = 0
KDO1 101648Z 18003KT 20/01 A2979 RMK A01 T02000012  RH  028%=      5-min Rain = 0
KDO1 101649Z 15003KT 20/01 A2979 RMK A01 T02010010  RH  028%=      5-min Rain = 0
KDO1 101650Z 14002KT 20/01 A2979 RMK A01 T02020009  RH  028%=      5-min Rain = 0
KDO1 101651Z 20003KT 20/01 A2979 RMK A01 T02030010  RH  028%=      5-min Rain = 0
KDO1 101652Z 19002KT 20/01 A2979 RMK A01 T02040010  RH  028%=      5-min Rain = 0
KDO1 101653Z 17001KT 20/01 A2979 RMK A01 T02040010  RH  027%=      5-min Rain = 0
KDO1 101654Z 21000KT 20/01 A2979 RMK A01 T02040011  RH  027%=      5-min Rain = 0
KDO1 101655Z 13001KT 21/01 A2979 RMK A01 T02050012  RH  028%=      5-min Rain = 0
KDO1 101656Z 15002KT 21/01 A2979 RMK A01 T02070010  RH  027%=      5-min Rain = 0
KDO1 101657Z 12002KT 21/01 A2979 RMK A01 T02080008  RH  026%=      5-min Rain = 0
KDO1 101658Z 07001KT 21/01 A2979 RMK A01 T02080006  RH  026%=      5-min Rain = 0
KDO1 101659Z 10000KT 21/01 A2979 RMK A01 T02070006  RH  026%=      5-min Rain = 0
KDO1 101700Z 11002KT 21/01 A2979 RMK A01 T02070007  RH  026%=      5-min Rain = 0
KDO1 101701Z 13001KT 21/01 A2979 RMK A01 T02070006  RH  026%=      5-min Rain = 0
KDO1 101702Z 16001KT 21/01 A2979 RMK A01 T02080007  RH  026%=      5-min Rain = 0
KDO1 101703Z 19001KT 21/01 A2978 RMK A01 T02080007  RH  026%=      5-min Rain = 0
KDO1 101704Z 19004KT 21/01 A2978 RMK A01 T02080009  RH  027%=      5-min Rain = 0
KDO1 101705Z 20004KT 21/01 A2978 RMK A01 T02090008  RH  026%=      5-min Rain = 0
KDO1 101706Z 19003KT 21/01 A2978 RMK A01 T02100008  RH  026%=      5-min Rain = 0
KDO1 101707Z 18002KT 21/01 A2978 RMK A01 T02090008  RH  026%=      5-min Rain = 0
KDO1 101708Z 20002KT 21/01 A2978 RMK A01 T02090009  RH  026%=      5-min Rain = 0
KDO1 101709Z 18002KT 21/01 A2978 RMK A01 T02090008  RH  026%=      5-min Rain = 0
KDO1 101710Z 19001KT 21/01 A2978 RMK A01 T02090007  RH  026%=      5-min Rain = 0
KDO1 101711Z 26001KT 21/01 A2978 RMK A01 T02090008  RH  026%=      5-min Rain = 0
KDO1 101712Z 28000KT 21/01 A2978 RMK A01 T02090006  RH  026%=      5-min Rain = 0
KDO1 101713Z 24000KT 21/01 A2978 RMK A01 T02090007  RH  026%=      5-min Rain = 0
KDO1 101714Z 00000KT 21/01 A2978 RMK A01 T02100007  RH  026%=      5-min Rain = 0
KDO1 101715Z 10001KT 21/01 A2978 RMK A01 T02110009  RH  026%=      5-min Rain = 0
KDO1 101716Z 11000KT 21/01 A2978 RMK A01 T02120007  RH  025%=      5-min Rain = 0
KDO1 101717Z 18001KT 21/01 A2978 RMK A01 T02140009  RH  026%=      5-min Rain = 0
KDO1 101718Z 19004KT 22/01 A2978 RMK A01 T02160011  RH  026%=      5-min Rain = 0
KDO1 101719Z 19003KT 22/01 A2978 RMK A01 T02170009  RH  025%=      5-min Rain = 0
KDO1 101720Z 22001KT 22/01 A2978 RMK A01 T02170009  RH  025%=      5-min Rain = 0
KDO1 101721Z 28000KT 22/01 A2978 RMK A01 T02170008  RH  025%=      5-min Rain = 0
KDO1 101722Z 00000KT 22/01 A2978 RMK A01 T02160008  RH  025%=      5-min Rain = 0
KDO1 101723Z 17003KT 22/01 A2978 RMK A01 T02160011  RH  026%=      5-min Rain = 0
KDO1 101724Z 16004KT 22/01 A2978 RMK A01 T02180009  RH  025%=      5-min Rain = 0
KDO1 101725Z 16004KT 22/01 A2978 RMK A01 T02190009  RH  025%=      5-min Rain = 0
KDO1 101726Z 16004KT 22/01 A2978 RMK A01 T02200009  RH  025%=      5-min Rain = 0
KDO1 101727Z 17003KT 22/01 A2978 RMK A01 T02210010  RH  025%=      5-min Rain = 0
KDO1 101728Z 13003KT 22/01 A2978 RMK A01 T02230009  RH  024%=      5-min Rain = 0
KDO1 101729Z 10003KT 22/01 A2978 RMK A01 T02230006  RH  024%=      5-min Rain = 0
KDO1 101730Z 12002KT 22/01 A2978 RMK A01 T02220006  RH  024%=      5-min Rain = 0
KDO1 101731Z 12002KT 22/00 A2978 RMK A01 T02210004  RH  024%=      5-min Rain = 0
KDO1 101732Z 14002KT 22/00 A2978 RMK A01 T02200004  RH  024%=      5-min Rain = 0
KDO1 101733Z 14002KT 22/01 A2978 RMK A01 T02200006  RH  024%=      5-min Rain = 0
KDO1 101734Z 19002KT 22/01 A2978 RMK A01 T02210006  RH  024%=      5-min Rain = 0
KDO1 101735Z 18003KT 22/01 A2978 RMK A01 T02230005  RH  023%=      5-min Rain = 0
KDO1 101736Z 19001KT 22/01 A2978 RMK A01 T02230005  RH  024%=      5-min Rain = 0
KDO1 101737Z 23001KT 22/00 A2978 RMK A01 T02240004  RH  023%=      5-min Rain = 0
KDO1 101738Z 29001KT 22/00 A2978 RMK A01 T02240000  RH  023%=      5-min Rain = 0
KDO1 101739Z 31002KT 22/00 A2978 RMK A01 T02230002  RH  023%=      5-min Rain = 0
KDO1 101740Z 14002KT 22/00 A2978 RMK A01 T02230004  RH  023%=      5-min Rain = 0
KDO1 101741Z 12004KT 23/01 A2978 RMK A01 T02260008  RH  024%=      5-min Rain = 0
KDO1 101742Z 12007KT 23/01 A2978 RMK A01 T02300008  RH  023%=      5-min Rain = 0
KDO1 101743Z 12006KT 23/01 A2977 RMK A01 T02310007  RH  023%=      5-min Rain = 0
KDO1 101744Z 14007KT 23/00 A2977 RMK A01 T02300004  RH  022%=      5-min Rain = 0
KDO1 101745Z 15005KT 23/00 A2977 RMK A01 T02300001  RH  022%=      5-min Rain = 0
KDO1 101746Z 16005KT 23/00 A2977 RMK A01 T02270002  RH  022%=      5-min Rain = 0
KDO1 101747Z 19005KT 23/00 A2977 RMK A01 T02260001  RH  022%=      5-min Rain = 0
KDO1 101748Z 19003KT 22/00 A2977 RMK A01 T02240001  RH  023%=      5-min Rain = 0
KDO1 101749Z 17004KT 23/00 A2977 RMK A01 T02250002  RH  023%=      5-min Rain = 0
KDO1 101750Z 17004KT 23/00 A2977 RMK A01 T02270001  RH  022%=      5-min Rain = 0
KDO1 101751Z 11006KT 23/01 A2977 RMK A01 T02280005  RH  023%=      5-min Rain = 0
KDO1 101752Z 12006KT 23/01 A2977 RMK A01 T02320007  RH  023%=      5-min Rain = 0
KDO1 101753Z 13004KT 23/00 A2977 RMK A01 T02330002  RH  022%=      5-min Rain = 0
KDO1 101754Z 12003KT 23/00 A2977 RMK A01 T02320004  RH  022%=      5-min Rain = 0
KDO1 101755Z 09003KT 23/00 A2977 RMK A01 T02320002  RH  022%=      5-min Rain = 0
KDO1 101756Z 12001KT 23/M00 A2977 RMK A01 T02321002  RH  021%=      5-min Rain = 0
KDO1 101757Z 16001KT 23/M00 A2977 RMK A01 T02321001  RH  021%=      5-min Rain = 0
KDO1 101758Z 15002KT 23/M01 A2977 RMK A01 T02331006  RH  021%=      5-min Rain = 0
KDO1 101759Z 11001KT 23/M01 A2977 RMK A01 T02341006  RH  020%=      5-min Rain = 0
KDO1 101800Z 07001KT 24/M01 A2977 RMK A01 T02351007  RH  020%=      5-min Rain = 0
KDO1 101801Z 12001KT 24/M01 A2977 RMK A01 T02361006  RH  020%=      5-min Rain = 0
KDO1 101802Z 13005KT 24/M00 A2977 RMK A01 T02351002  RH  021%=      5-min Rain = 0
KDO1 101803Z 14003KT 24/M00 A2977 RMK A01 T02351002  RH  021%=      5-min Rain = 0
KDO1 101804Z 16003KT 24/00 A2977 RMK A01 T023500-0  RH  021%=      5-min Rain = 0
KDO1 101805Z 20001KT 24/M00 A2977 RMK A01 T02351001  RH  021%=      5-min Rain = 0
KDO1 101806Z 24004KT 23/M01 A2977 RMK A01 T02341005  RH  020%=      5-min Rain = 0
KDO1 101807Z 23004KT 24/M01 A2977 RMK A01 T02351014  RH  019%=      5-min Rain = 0
KDO1 101808Z 23005KT 24/M02 A2977 RMK A01 T02351021  RH  018%=      5-min Rain = 0
KDO1 101809Z 23005KT 24/M03 A2977 RMK A01 T02361025  RH  017%=      5-min Rain = 0
KDO1 101810Z 22005KT 24/M03 A2977 RMK A01 T02361026  RH  017%=      5-min Rain = 0
KDO1 101811Z 21005KT 24/M03 A2977 RMK A01 T02371025  RH  017%=      5-min Rain = 0
KDO1 101812Z 21002KT 24/M03 A2977 RMK A01 T02381027  RH  017%=      5-min Rain = 0
KDO1 101813Z 19003KT 24/M03 A2977 RMK A01 T02381026  RH  017%=      5-min Rain = 0
KDO1 101814Z 19004KT 24/M03 A2977 RMK A01 T02391025  RH  017%=      5-min Rain = 0
KDO1 101815Z 20006KT 24/M03 A2977 RMK A01 T02411025  RH  017%=      5-min Rain = 0
KDO1 101816Z 20004KT 24/M03 A2977 RMK A01 T02401027  RH  017%=      5-min Rain = 0
KDO1 101817Z 20003KT 24/M02 A2976 RMK A01 T02401022  RH  017%=      5-min Rain = 0
KDO1 101818Z 25003KT 24/M02 A2976 RMK A01 T02441020  RH  017%=      5-min Rain = 0
KDO1 101819Z 25002KT 25/M02 A2976 RMK A01 T02481018  RH  017%=      5-min Rain = 0
KDO1 101820Z 33004KT 25/M03 A2976 RMK A01 T02501026  RH  016%=      5-min Rain = 0
KDO1 101821Z 30003KT 25/M03 A2976 RMK A01 T02491029  RH  016%=      5-min Rain = 0
KDO1 101822Z 25001KT 25/M03 A2976 RMK A01 T02461034  RH  015%=      5-min Rain = 0
KDO1 101823Z 24006KT 25/M03 A2976 RMK A01 T02451033  RH  016%=      5-min Rain = 0
KDO1 101824Z 23007KT 25/M04 A2976 RMK A01 T02451035  RH  015%=      5-min Rain = 0
KDO1 101825Z 23006KT 25/M04 A2976 RMK A01 T02451035  RH  015%=      5-min Rain = 0
KDO1 101826Z 25005KT 25/M03 A2976 RMK A01 T02451033  RH  016%=      5-min Rain = 0
KDO1 101827Z 28003KT 25/M04 A2976 RMK A01 T02471036  RH  015%=      5-min Rain = 0
KDO1 101828Z 28003KT 25/M04 A2976 RMK A01 T02451036  RH  015%=      5-min Rain = 0
KDO1 101829Z 32003KT 24/M04 A2976 RMK A01 T02441035  RH  015%=      5-min Rain = 0
KDO1 101830Z 29003KT 24/M04 A2976 RMK A01 T02441035  RH  015%=      5-min Rain = 0
KDO1 101831Z 28000KT 25/M03 A2976 RMK A01 T02451034  RH  015%=      5-min Rain = 0
KDO1 101832Z 24003KT 25/M03 A2976 RMK A01 T02471031  RH  016%=      5-min Rain = 0
KDO1 101833Z 23005KT 25/M04 A2976 RMK A01 T02481036  RH  015%=      5-min Rain = 0
KDO1 101834Z 24004KT 25/M04 A2976 RMK A01 T02481036  RH  015%=      5-min Rain = 0
KDO1 101835Z 24005KT 25/M03 A2976 RMK A01 T02481033  RH  015%=      5-min Rain = 0
KDO1 101836Z 25004KT 25/M03 A2976 RMK A01 T02491034  RH  015%=      5-min Rain = 0
KDO1 101837Z 28004KT 25/M04 A2976 RMK A01 T02511036  RH  015%=      5-min Rain = 0
KDO1 101838Z 26005KT 25/M04 A2975 RMK A01 T02501037  RH  015%=      5-min Rain = 0
KDO1 101839Z 26005KT 25/M04 A2975 RMK A01 T02481039  RH  015%=      5-min Rain = 0
KDO1 101840Z 28005KT 25/M04 A2975 RMK A01 T02471039  RH  015%=      5-min Rain = 0
KDO1 101841Z 29005KT 25/M04 A2975 RMK A01 T02461038  RH  015%=      5-min Rain = 0
KDO1 101842Z 29005KT 25/M04 A2975 RMK A01 T02461039  RH  015%=      5-min Rain = 0
KDO1 101843Z 30004KT 25/M04 A2975 RMK A01 T02461039  RH  015%=      5-min Rain = 0
KDO1 101844Z 30004KT 25/M04 A2975 RMK A01 T02461036  RH  015%=      5-min Rain = 0
KDO1 101845Z 30004KT 25/M04 A2975 RMK A01 T02481036  RH  015%=      5-min Rain = 0
KDO1 101846Z 28002KT 25/M04 A2975 RMK A01 T02481036  RH  015%=      5-min Rain = 0
KDO1 101847Z 26003KT 25/M04 A2975 RMK A01 T02491037  RH  015%=      5-min Rain = 0
KDO1 101848Z 25004KT 25/M04 A2975 RMK A01 T02491037  RH  015%=      5-min Rain = 0
KDO1 101849Z 30005KT 25/M04 A2975 RMK A01 T02501039  RH  015%=      5-min Rain = 0
KDO1 101850Z 27004KT 25/M04 A2975 RMK A01 T02491038  RH  015%=      5-min Rain = 0
KDO1 101851Z 24003KT 25/M04 A2975 RMK A01 T02481041  RH  014%=      5-min Rain = 0
KDO1 101852Z 24002KT 25/M04 A2975 RMK A01 T02471038  RH  015%=      5-min Rain = 0
KDO1 101853Z 24001KT 25/M03 A2975 RMK A01 T02491034  RH  015%=      5-min Rain = 0
KDO1 101854Z 23001KT 25/M04 A2975 RMK A01 T02511037  RH  015%=      5-min Rain = 0
KDO1 101855Z 12000KT 25/M04 A2975 RMK A01 T02531035  RH  015%=      5-min Rain = 0
KDO1 101856Z 09000KT 26/M04 A2975 RMK A01 T02551036  RH  014%=      5-min Rain = 0
KDO1 101857Z 15000KT 26/M04 A2975 RMK A01 T02571038  RH  014%=      5-min Rain = 0
KDO1 101858Z 19003KT 26/M04 A2975 RMK A01 T02591036  RH  014%=      5-min Rain = 0
KDO1 101859Z 19005KT 26/M04 A2975 RMK A01 T02601036  RH  014%=      5-min Rain = 0
KDO1 101900Z 19004KT 26/M04 A2975 RMK A01 T02601041  RH  013%=      5-min Rain = 0
KDO1 101901Z 20003KT 26/M04 A2975 RMK A01 T02571041  RH  014%=      5-min Rain = 0
KDO1 101902Z 20002KT 26/M04 A2974 RMK A01 T02571037  RH  014%=      5-min Rain = 0
KDO1 101903Z 23001KT 26/M04 A2974 RMK A01 T02581039  RH  014%=      5-min Rain = 0
KDO1 101904Z 27002KT 26/M04 A2974 RMK A01 T02581041  RH  014%=      5-min Rain = 0
KDO1 101905Z 33005KT 26/M04 A2974 RMK A01 T02581041  RH  014%=      5-min Rain = 0
KDO1 101906Z 31006KT 26/M05 A2974 RMK A01 T02581045  RH  013%=      5-min Rain = 0
KDO1 101907Z 31005KT 26/M05 A2974 RMK A01 T02571049  RH  013%=      5-min Rain = 0
KDO1 101908Z 28007KT 26/M05 A2974 RMK A01 T02561048  RH  013%=      5-min Rain = 0
KDO1 101909Z 28004KT 25/M06 A2975 RMK A01 T02541057  RH  012%=      5-min Rain = 0
KDO1 101910Z 33003KT 25/M06 A2974 RMK A01 T02511058  RH  012%=      5-min Rain = 0
KDO1 101911Z 24003KT 25/M06 A2974 RMK A01 T02501055  RH  013%=      5-min Rain = 0
KDO1 101912Z 25004KT 25/M06 A2974 RMK A01 T02531056  RH  012%=      5-min Rain = 0
KDO1 101913Z 21004KT 25/M06 A2974 RMK A01 T02541055  RH  013%=      5-min Rain = 0
KDO1 101914Z 16002KT 26/M06 A2974 RMK A01 T02551060  RH  012%=      5-min Rain = 0
KDO1 101915Z 13002KT 26/M06 A2974 RMK A01 T02551060  RH  012%=      5-min Rain = 0
KDO1 101916Z 11001KT 26/M06 A2974 RMK A01 T02551060  RH  012%=      5-min Rain = 0
KDO1 101917Z 01002KT 26/M06 A2974 RMK A01 T02551057  RH  012%=      5-min Rain = 0
KDO1 101918Z 02000KT 26/M06 A2974 RMK A01 T02551060  RH  012%=      5-min Rain = 0
KDO1 101919Z 34004KT 26/M06 A2974 RMK A01 T02561061  RH  012%=      5-min Rain = 0
KDO1 101920Z 34006KT 26/M06 A2974 RMK A01 T02571063  RH  012%=      5-min Rain = 0
KDO1 101921Z 36004KT 26/M06 A2974 RMK A01 T02561064  RH  012%=      5-min Rain = 0
KDO1 101922Z 35003KT 26/M07 A2973 RMK A01 T02561065  RH  011%=      5-min Rain = 0
KDO1 101923Z 31005KT 26/M07 A2973 RMK A01 T02561065  RH  011%=      5-min Rain = 0
KDO1 101924Z 33007KT 26/M07 A2973 RMK A01 T02551065  RH  011%=      5-min Rain = 0
KDO1 101925Z 32008KT 26/M06 A2973 RMK A01 T02561062  RH  012%=      5-min Rain = 0
KDO1 101926Z 30006KT 26/M06 A2973 RMK A01 T02591062  RH  012%=      5-min Rain = 0
KDO1 101927Z 29008KT 26/M07 A2973 RMK A01 T02601065  RH  011%=      5-min Rain = 0
KDO1 101928Z 31006KT 26/M07 A2973 RMK A01 T02591068  RH  011%=      5-min Rain = 0
KDO1 101929Z 30007KT 26/M07 A2973 RMK A01 T02571068  RH  011%=      5-min Rain = 0
KDO1 101930Z 29003KT 26/M07 A2973 RMK A01 T02571072  RH  011%=      5-min Rain = 0
KDO1 101931Z 31003KT 26/M07 A2973 RMK A01 T02561072  RH  011%=      5-min Rain = 0
KDO1 101932Z 30005KT 26/M07 A2973 RMK A01 T02561067  RH  011%=      5-min Rain = 0
KDO1 101933Z 29006KT 26/M06 A2973 RMK A01 T02581064  RH  011%=      5-min Rain = 0
KDO1 101934Z 29009KT 26/M06 A2973 RMK A01 T02601062  RH  011%=      5-min Rain = 0
KDO1 101935Z 29006KT 26/M07 A2973 RMK A01 T02611067  RH  011%=      5-min Rain = 0
KDO1 101936Z 26005KT 26/M07 A2973 RMK A01 T02581068  RH  011%=      5-min Rain = 0
KDO1 101937Z 25004KT 26/M07 A2973 RMK A01 T02571067  RH  011%=      5-min Rain = 0
KDO1 101938Z 25004KT 26/M07 A2973 RMK A01 T02561066  RH  011%=      5-min Rain = 0
KDO1 101939Z 26004KT 26/M06 A2973 RMK A01 T02571064  RH  011%=      5-min Rain = 0
KDO1 101940Z 30007KT 26/M06 A2973 RMK A01 T02591062  RH  012%=      5-min Rain = 0
KDO1 101941Z 29006KT 26/M07 A2973 RMK A01 T02611067  RH  011%=      5-min Rain = 0
KDO1 101942Z 31006KT 26/M07 A2973 RMK A01 T02601067  RH  011%=      5-min Rain = 0
KDO1 101943Z 30006KT 26/M07 A2973 RMK A01 T02601066  RH  011%=      5-min Rain = 0
KDO1 101944Z 32004KT 26/M07 A2973 RMK A01 T02581069  RH  011%=      5-min Rain = 0
KDO1 101945Z 32003KT 26/M07 A2973 RMK A01 T02571067  RH  011%=      5-min Rain = 0
KDO1 101946Z 32005KT 26/M07 A2973 RMK A01 T02571065  RH  011%=      5-min Rain = 0
KDO1 101947Z 35005KT 26/M06 A2972 RMK A01 T02591060  RH  012%=      5-min Rain = 0
KDO1 101948Z 33004KT 26/M06 A2972 RMK A01 T02601060  RH  012%=      5-min Rain = 0
KDO1 101949Z 03005KT 26/M06 A2972 RMK A01 T02611055  RH  012%=      5-min Rain = 0
KDO1 101950Z 36006KT 26/M06 A2972 RMK A01 T02641059  RH  011%=      5-min Rain = 0
KDO1 101951Z 00004KT 26/M06 A2972 RMK A01 T02631064  RH  011%=      5-min Rain = 0
KDO1 101952Z 01005KT 26/M06 A2972 RMK A01 T02621057  RH  012%=      5-min Rain = 0
KDO1 101953Z 01007KT 27/M06 A2972 RMK A01 T02651058  RH  012%=      5-min Rain = 0
KDO1 101954Z 01007KT 27/M06 A2972 RMK A01 T02651062  RH  011%=      5-min Rain = 0
KDO1 101955Z 03007G12KT 26/M06 A2972 RMK A01 T02641061  RH  011%=      5-min Rain = 0
KDO1 101956Z 02009KT 26/M07 A2972 RMK A01 T02641066  RH  011%=      5-min Rain = 0
KDO1 101957Z 03006KT 26/M07 A2972 RMK A01 T02641067  RH  011%=      5-min Rain = 0
KDO1 101958Z 03004KT 26/M07 A2972 RMK A01 T02621069  RH  011%=      5-min Rain = 0
KDO1 101959Z 03004KT 26/M07 A2972 RMK A01 T02621068  RH  011%=      5-min Rain = 0
KDO1 102000Z 35007G12KT 26/M07 A2972 RMK A01 T02611065  RH  011%=      5-min Rain = 0
KDO1 102001Z 34010KT 26/M07 A2972 RMK A01 T02621069  RH  011%=      5-min Rain = 0
KDO1 102002Z 32008KT 26/M07 A2972 RMK A01 T02621068  RH  011%=      5-min Rain = 0
KDO1 102003Z 31008G14KT 26/M07 A2972 RMK A01 T02611069  RH  011%=      5-min Rain = 0
KDO1 102004Z 32006KT 26/M07 A2972 RMK A01 T02621068  RH  011%=      5-min Rain = 0
KDO1 102005Z 34006KT 26/M07 A2972 RMK A01 T02621065  RH  011%=      5-min Rain = 0
KDO1 102006Z 33008KT 26/M06 A2972 RMK A01 T02641061  RH  011%=      5-min Rain = 0
KDO1 102007Z 34007KT 27/M06 A2972 RMK A01 T02651060  RH  011%=      5-min Rain = 0
KDO1 102008Z 34006KT 26/M06 A2972 RMK A01 T02641063  RH  011%=      5-min Rain = 0
KDO1 102009Z 34006KT 26/M06 A2972 RMK A01 T02641062  RH  011%=      5-min Rain = 0
KDO1 102010Z 31005KT 26/M06 A2972 RMK A01 T02641064  RH  011%=      5-min Rain = 0
KDO1 102011Z 29005KT 26/M07 A2971 RMK A01 T02641066  RH  011%=      5-min Rain = 0
KDO1 102012Z 32003KT 26/M07 A2971 RMK A01 T02641066  RH  011%=      5-min Rain = 0
KDO1 102013Z 30004KT 27/M07 A2971 RMK A01 T02651065  RH  011%=      5-min Rain = 0
KDO1 102014Z 34004KT 27/M07 A2971 RMK A01 T02661071  RH  010%=      5-min Rain = 0
KDO1 102015Z 30001KT 27/M07 A2971 RMK A01 T02651069  RH  011%=      5-min Rain = 0
KDO1 102016Z 31001KT 27/M07 A2971 RMK A01 T02651071  RH  010%=      5-min Rain = 0
KDO1 102017Z 29000KT 27/M07 A2971 RMK A01 T02651074  RH  010%=      5-min Rain = 0
KDO1 102018Z 12000KT 27/M07 A2971 RMK A01 T02661071  RH  010%=      5-min Rain = 0
KDO1 102019Z 10000KT 27/M07 A2971 RMK A01 T02671070  RH  010%=      5-min Rain = 0
KDO1 102020Z 16001KT 27/M07 A2971 RMK A01 T02671068  RH  011%=      5-min Rain = 0
KDO1 102021Z 13001KT 27/M07 A2971 RMK A01 T02671069  RH  010%=      5-min Rain = 0
KDO1 102022Z 03003KT 27/M07 A2971 RMK A01 T02661068  RH  011%=      5-min Rain = 0
KDO1 102023Z 35002KT 27/M06 A2971 RMK A01 T02671063  RH  011%=      5-min Rain = 0
KDO1 102024Z 33001KT 27/M06 A2971 RMK A01 T02671064  RH  011%=      5-min Rain = 0
KDO1 102025Z 26004KT 27/M06 A2971 RMK A01 T02681059  RH  011%=      5-min Rain = 0
KDO1 102026Z 27005KT 27/M07 A2971 RMK A01 T02701065  RH  011%=      5-min Rain = 0
KDO1 102027Z 27005KT 27/M07 A2971 RMK A01 T02691065  RH  011%=      5-min Rain = 0
KDO1 102028Z 32012G18KT 27/M06 A297 RMK A01 T02711062  RH  011%=      5-min Rain = 0
KDO1 102029Z 01011KT 28/M06 A2971 RMK A01 T02761057  RH  011%=      5-min Rain = 0
KDO1 102030Z 01008KT 28/M06 A2971 RMK A01 T02781059  RH  011%=      5-min Rain = 0
KDO1 102031Z 01007KT 28/M06 A2971 RMK A01 T02781060  RH  010%=      5-min Rain = 0
KDO1 102032Z 01007KT 28/M06 A2971 RMK A01 T02771061  RH  010%=      5-min Rain = 0
KDO1 102033Z 01009KT 28/M06 A2971 RMK A01 T02751062  RH  011%=      5-min Rain = 0
KDO1 102034Z 01007G12KT 27/M07 A2971 RMK A01 T02721065  RH  010%=      5-min Rain = 0
KDO1 102035Z 02007KT 27/M07 A2971 RMK A01 T02711065  RH  011%=      5-min Rain = 0
KDO1 102036Z 03007KT 27/M07 A2971 RMK A01 T02701067  RH  010%=      5-min Rain = 0
KDO1 102037Z 01005KT 27/M08 A2971 RMK A01 T02701080  RH  009%=      5-min Rain = 0
KDO1 102038Z 35005KT 27/M08 A2971 RMK A01 T02701078  RH  010%=      5-min Rain = 0
KDO1 102039Z 32008KT 27/M08 A2971 RMK A01 T02711079  RH  009%=      5-min Rain = 0
KDO1 102040Z 34007KT 27/M09 A2971 RMK A01 T02721091  RH  009%=      5-min Rain = 0
KDO1 102041Z 32013KT 27/M09 A2971 RMK A01 T02701087  RH  009%=      5-min Rain = 0
KDO1 102042Z 31012G17KT 27/M09 A2971 RMK A01 T02711086  RH  009%=      5-min Rain = 0
KDO1 102043Z 32011KT 27/M09 A2971 RMK A01 T02731088  RH  009%=      5-min Rain = 0
KDO1 102044Z 32008KT 27/M09 A2972 RMK A01 T02731094  RH  008%=      5-min Rain = 0
KDO1 102045Z 32003KT 27/M10 A2971 RMK A01 T02701096  RH  008%=      5-min Rain = 0
KDO1 102046Z 31005KT 27/M09 A2971 RMK A01 T02691093  RH  009%=      5-min Rain = 0
KDO1 102047Z 28003KT 27/M09 A2971 RMK A01 T02691093  RH  009%=      5-min Rain = 0
KDO1 102048Z 28003KT 27/M10 A2971 RMK A01 T02691096  RH  008%=      5-min Rain = 0
KDO1 102049Z 28003KT 27/M10 A2971 RMK A01 T02701097  RH  008%=      5-min Rain = 0
KDO1 102050Z 30001KT 27/M10 A2971 RMK A01 T02691098  RH  008%=      5-min Rain = 0
KDO1 102051Z 00000KT 27/M10 A2971 RMK A01 T02691097  RH  008%=      5-min Rain = 0
KDO1 102052Z 33001KT 27/M10 A2971 RMK A01 T02691098  RH  008%=      5-min Rain = 0
KDO1 102053Z 36004KT 27/M09 A2971 RMK A01 T02691090  RH  009%=      5-min Rain = 0
KDO1 102054Z 01007KT 27/M09 A2971 RMK A01 T02721087  RH  009%=      5-min Rain = 0
KDO1 102055Z 35008KT 27/M09 A2971 RMK A01 T02741088  RH  009%=      5-min Rain = 0
KDO1 102056Z 34011KT 28/M08 A2971 RMK A01 T02761083  RH  009%=      5-min Rain = 0
KDO1 102057Z 35011KT 28/M09 A2971 RMK A01 T02761088  RH  009%=      5-min Rain = 0
KDO1 102058Z 34012KT 27/M09 A2971 RMK A01 T02741090  RH  008%=      5-min Rain = 0
KDO1 102059Z 35011KT 27/M09 A2971 RMK A01 T02731086  RH  009%=      5-min Rain = 0
KDO1 102100Z 35009KT 27/M09 A2971 RMK A01 T02731092  RH  008%=      5-min Rain = 0
KDO1 102101Z 34008KT 27/M09 A2971 RMK A01 T02721092  RH  008%=      5-min Rain = 0
KDO1 102102Z 35008KT 27/M09 A2971 RMK A01 T02711090  RH  009%=      5-min Rain = 0
KDO1 102103Z 00008KT 27/M09 A2971 RMK A01 T02701093  RH  008%=      5-min Rain = 0
KDO1 102104Z 01005KT 27/M09 A2971 RMK A01 T02691094  RH  008%=      5-min Rain = 0
KDO1 102105Z 01003KT 27/M10 A2971 RMK A01 T02681097  RH  008%=      5-min Rain = 0
KDO1 102106Z 31003KT 27/M09 A2971 RMK A01 T02681094  RH  009%=      5-min Rain = 0
KDO1 102107Z 30007KT 27/M09 A2971 RMK A01 T02691092  RH  009%=      5-min Rain = 0
KDO1 102108Z 32007KT 27/M09 A2971 RMK A01 T02711091  RH  009%=      5-min Rain = 0
KDO1 102109Z 33007KT 27/M09 A2971 RMK A01 T02711089  RH  009%=      5-min Rain = 0
KDO1 102110Z 32007KT 27/M09 A2971 RMK A01 T02741085  RH  009%=      5-min Rain = 0
KDO1 102111Z 32007KT 27/M09 A2971 RMK A01 T02741091  RH  008%=      5-min Rain = 0
KDO1 102112Z 32006KT 27/M09 A2971 RMK A01 T02731093  RH  008%=      5-min Rain = 0
KDO1 102113Z 30006KT 27/M09 A2971 RMK A01 T02721090  RH  009%=      5-min Rain = 0
KDO1 102114Z 36007KT 27/M09 A2971 RMK A01 T02731086  RH  009%=      5-min Rain = 0
KDO1 102115Z 34009KT 27/M08 A2971 RMK A01 T02731082  RH  009%=      5-min Rain = 0
KDO1 102116Z 34009KT 28/M08 A2971 RMK A01 T02761082  RH  009%=      5-min Rain = 0
KDO1 102117Z 35009KT 27/M09 A2971 RMK A01 T02731090  RH  009%=      5-min Rain = 0
KDO1 102118Z 34009KT 27/M09 A2971 RMK A01 T02721086  RH  009%=      5-min Rain = 0
KDO1 102119Z 35008KT 27/M09 A2971 RMK A01 T02721086  RH  009%=      5-min Rain = 0
KDO1 102120Z 35008KT 27/M08 A2971 RMK A01 T02731080  RH  009%=      5-min Rain = 0
KDO1 102121Z 01012KT 28/M09 A2971 RMK A01 T02751085  RH  009%=      5-min Rain = 0
KDO1 102122Z 36009KT 27/M09 A2971 RMK A01 T02741091  RH  008%=      5-min Rain = 0
KDO1 102123Z 33010G16KT 27/M09 A2971 RMK A01 T02731086  RH  009%=      5-min Rain = 0
KDO1 102124Z 29009KT 27/M09 A2971 RMK A01 T02741088  RH  009%=      5-min Rain = 0
KDO1 102125Z 26006KT 27/M10 A2971 RMK A01 T02731095  RH  008%=      5-min Rain = 0
KDO1 102126Z 26005KT 27/M10 A2971 RMK A01 T02691096  RH  008%=      5-min Rain = 0
KDO1 102127Z 30007KT 27/M09 A2971 RMK A01 T02691090  RH  009%=      5-min Rain = 0
KDO1 102128Z 31008KT 27/M09 A2971 RMK A01 T02711093  RH  008%=      5-min Rain = 0
KDO1 102129Z 32011KT 27/M09 A2971 RMK A01 T02711091  RH  009%=      5-min Rain = 0
KDO1 102130Z 33012KT 27/M09 A2971 RMK A01 T02731085  RH  009%=      5-min Rain = 0
KDO1 102131Z 32013KT 27/M09 A2971 RMK A01 T02741087  RH  009%=      5-min Rain = 0
KDO1 102132Z 34011KT 27/M09 A2971 RMK A01 T02731085  RH  009%=      5-min Rain = 0
KDO1 102133Z 33012KT 27/M08 A2971 RMK A01 T02731083  RH  009%=      5-min Rain = 0
KDO1 102134Z 32012KT 27/M09 A2972 RMK A01 T02731087  RH  009%=      5-min Rain = 0
KDO1 102135Z 32010KT 27/M09 A2972 RMK A01 T02701089  RH  009%=      5-min Rain = 0
KDO1 102136Z 32007KT 27/M09 A2972 RMK A01 T02691091  RH  009%=      5-min Rain = 0
KDO1 102137Z 32004KT 27/M09 A2972 RMK A01 T02681085  RH  009%=      5-min Rain = 0
KDO1 102138Z 31005KT 27/M09 A2972 RMK A01 T02701088  RH  009%=      5-min Rain = 0
KDO1 102139Z 31005KT 27/M09 A2972 RMK A01 T02711086  RH  009%=      5-min Rain = 0
KDO1 102140Z 35004KT 27/M09 A2972 RMK A01 T02721085  RH  009%=      5-min Rain = 0
KDO1 102141Z 35005KT 27/M09 A2972 RMK A01 T02721089  RH  009%=      5-min Rain = 0
KDO1 102142Z 34004KT 27/M09 A2972 RMK A01 T02711088  RH  009%=      5-min Rain = 0
KDO1 102143Z 36006G12KT 27/M09 A2971 RMK A01 T02711088  RH  009%=      5-min Rain = 0
KDO1 102144Z 33011KT 27/M09 A2971 RMK A01 T02721086  RH  009%=      5-min Rain = 0
KDO1 102145Z 33009KT 27/M09 A2972 RMK A01 T02731092  RH  008%=      5-min Rain = 0
KDO1 102146Z 35008KT 27/M09 A2972 RMK A01 T02731085  RH  009%=      5-min Rain = 0
KDO1 102147Z 34008KT 28/M09 A2972 RMK A01 T02751088  RH  009%=      5-min Rain = 0
KDO1 102148Z 32010KT 28/M09 A2972 RMK A01 T02751087  RH  009%=      5-min Rain = 0
KDO1 102149Z 33011KT 27/M09 A2972 RMK A01 T02741090  RH  009%=      5-min Rain = 0
KDO1 102150Z 32009KT 27/M09 A2972 RMK A01 T02731092  RH  008%=      5-min Rain = 0
KDO1 102151Z 30008KT 27/M09 A2972 RMK A01 T02711093  RH  008%=      5-min Rain = 0
KDO1 102152Z 30007KT 27/M10 A2971 RMK A01 T02701095  RH  008%=      5-min Rain = 0
KDO1 102153Z 33006KT 27/M10 A2972 RMK A01 T02691096  RH  008%=      5-min Rain = 0
KDO1 102154Z 35007KT 27/M09 A2972 RMK A01 T02691090  RH  009%=      5-min Rain = 0
KDO1 102155Z 36009KT 27/M09 A2972 RMK A01 T02701089  RH  009%=      5-min Rain = 0
KDO1 102156Z 01006KT 27/M09 A2972 RMK A01 T02711089  RH  009%=      5-min Rain = 0
KDO1 102157Z 02006KT 27/M09 A2972 RMK A01 T02701094  RH  008%=      5-min Rain = 0
KDO1 102158Z 34006KT 27/M09 A2972 RMK A01 T02701091  RH  009%=      5-min Rain = 0
KDO1 102159Z 35009G14KT 27/M09 A2972 RMK A01 T02721085  RH  009%=      5-min Rain = 0
KDO1 102200Z 34013KT 27/M09 A2972 RMK A01 T02721091  RH  009%=      5-min Rain = 0
KDO1 102201Z 34010KT 27/M09 A2972 RMK A01 T02711094  RH  008%=      5-min Rain = 0
KDO1 102202Z 33010KT 27/M09 A2972 RMK A01 T02701091  RH  009%=      5-min Rain = 0
KDO1 102203Z 31007G13KT 27/M09 A2972 RMK A01 T02701093  RH  009%=      5-min Rain = 0
KDO1 102204Z 34007G12KT 27/M10 A2972 RMK A01 T02691096  RH  008%=      5-min Rain = 0
KDO1 102205Z 34010KT 27/M09 A2972 RMK A01 T02691089  RH  009%=      5-min Rain = 0
KDO1 102206Z 35011KT 27/M09 A2972 RMK A01 T02691085  RH  009%=      5-min Rain = 0
KDO1 102207Z 35010KT 27/M09 A2972 RMK A01 T02701089  RH  009%=      5-min Rain = 0
KDO1 102208Z 36009KT 27/M09 A2972 RMK A01 T02691088  RH  009%=      5-min Rain = 0
KDO1 102209Z 36010KT 27/M09 A2972 RMK A01 T02691089  RH  009%=      5-min Rain = 0
KDO1 102210Z 36010KT 27/M09 A2972 RMK A01 T02681091  RH  009%=      5-min Rain = 0
KDO1 102211Z 34009KT 27/M09 A2972 RMK A01 T02681088  RH  009%=      5-min Rain = 0
KDO1 102212Z 34008G13KT 27/M09 A2972 RMK A01 T02681090  RH  009%=      5-min Rain = 0
KDO1 102213Z 34009KT 27/M09 A2972 RMK A01 T02681086  RH  009%=      5-min Rain = 0
KDO1 102214Z 34012KT 27/M09 A2972 RMK A01 T02691088  RH  009%=      5-min Rain = 0
KDO1 102215Z 34008KT 27/M09 A2972 RMK A01 T02671093  RH  009%=      5-min Rain = 0
KDO1 102216Z 34006KT 27/M09 A2972 RMK A01 T02651092  RH  009%=      5-min Rain = 0
KDO1 102217Z 34009KT 26/M09 A2972 RMK A01 T02641088  RH  009%=      5-min Rain = 0
KDO1 102218Z 34008KT 26/M09 A2972 RMK A01 T02631093  RH  009%=      5-min Rain = 0
KDO1 102219Z 33010G15KT 26/M09 A2972 RMK A01 T02631094  RH  009%=      5-min Rain = 0
KDO1 102220Z 32015KT 26/M09 A2972 RMK A01 T02621090  RH  009%=      5-min Rain = 0
KDO1 102221Z 34011KT 26/M09 A2972 RMK A01 T02621092  RH  009%=      5-min Rain = 0
KDO1 102222Z 34008KT 26/M09 A2972 RMK A01 T02621089  RH  009%=      5-min Rain = 0
KDO1 102223Z 33014KT 26/M09 A2972 RMK A01 T02631089  RH  009%=      5-min Rain = 0
KDO1 102224Z 33013KT 26/M09 A2972 RMK A01 T02621092  RH  009%=      5-min Rain = 0
KDO1 102225Z 33011KT 26/M09 A2972 RMK A01 T02611093  RH  009%=      5-min Rain = 0
KDO1 102226Z 33013KT 26/M09 A2972 RMK A01 T02611091  RH  009%=      5-min Rain = 0
KDO1 102227Z 33009KT 26/M09 A2972 RMK A01 T02611093  RH  009%=      5-min Rain = 0
KDO1 102228Z 33010KT 26/M09 A2972 RMK A01 T02601093  RH  009%=      5-min Rain = 0
KDO1 102229Z 33012KT 26/M09 A2972 RMK A01 T02591089  RH  009%=      5-min Rain = 0
KDO1 102230Z 32013KT 26/M09 A2972 RMK A01 T02601093  RH  009%=      5-min Rain = 0
KDO1 102231Z 33012KT 26/M09 A2972 RMK A01 T02601093  RH  009%=      5-min Rain = 0
KDO1 102232Z 33009KT 26/M09 A2972 RMK A01 T02601093  RH  009%=      5-min Rain = 0
KDO1 102233Z 34009KT 26/M09 A2972 RMK A01 T02591090  RH  009%=      5-min Rain = 0
KDO1 102234Z 33010KT 26/M09 A2973 RMK A01 T02591090  RH  009%=      5-min Rain = 0
KDO1 102235Z 33009KT 26/M09 A2973 RMK A01 T02591090  RH  009%=      5-min Rain = 0
KDO1 102236Z 31007KT 26/M10 A2973 RMK A01 T02591095  RH  009%=      5-min Rain = 0
KDO1 102237Z 31007KT 26/M10 A2973 RMK A01 T02581095  RH  009%=      5-min Rain = 0
KDO1 102238Z 33009KT 26/M10 A2973 RMK A01 T02581095  RH  009%=      5-min Rain = 0
KDO1 102239Z 33012KT 26/M09 A2973 RMK A01 T02571091  RH  009%=      5-min Rain = 0
KDO1 102240Z 33011KT 26/M09 A2973 RMK A01 T02581091  RH  009%=      5-min Rain = 0
KDO1 102241Z 32013KT 26/M09 A2973 RMK A01 T02581092  RH  009%=      5-min Rain = 0
KDO1 102242Z 33013KT 26/M09 A2973 RMK A01 T02581092  RH  009%=      5-min Rain = 0
KDO1 102243Z 34012KT 26/M09 A2973 RMK A01 T02591090  RH  009%=      5-min Rain = 0
KDO1 102244Z 33011KT 26/M09 A2973 RMK A01 T02611086  RH  009%=      5-min Rain = 0
KDO1 102245Z 33012KT 26/M09 A2973 RMK A01 T02631086  RH  009%=      5-min Rain = 0
KDO1 102246Z 34012KT 26/M09 A2973 RMK A01 T02641088  RH  009%=      5-min Rain = 0
KDO1 102247Z 34011KT 27/M09 A2973 RMK A01 T02651090  RH  009%=      5-min Rain = 0
KDO1 102248Z 34009G14KT 27/M09 A2973 RMK A01 T02661086  RH  009%=      5-min Rain = 0
KDO1 102249Z 34011KT 27/M08 A2973 RMK A01 T02681084  RH  009%=      5-min Rain = 0
KDO1 102250Z 34012KT 27/M09 A2973 RMK A01 T02681088  RH  009%=      5-min Rain = 0
KDO1 102251Z 34012KT 27/M09 A2973 RMK A01 T02651089  RH  009%=      5-min Rain = 0
KDO1 102252Z 34012KT 26/M09 A2973 RMK A01 T02641086  RH  009%=      5-min Rain = 0
KDO1 102253Z 33013KT 26/M09 A2973 RMK A01 T02631087  RH  009%=      5-min Rain = 0
KDO1 102254Z 33013KT 26/M09 A2973 RMK A01 T02611090  RH  009%=      5-min Rain = 0
KDO1 102255Z 33011KT 26/M09 A2973 RMK A01 T02601088  RH  009%=      5-min Rain = 0
KDO1 102256Z 34011KT 26/M09 A2974 RMK A01 T02591087  RH  009%=      5-min Rain = 0
KDO1 102257Z 34010KT 26/M09 A2974 RMK A01 T02591088  RH  009%=      5-min Rain = 0
KDO1 102258Z 33010KT 26/M09 A2974 RMK A01 T02581087  RH  010%=      5-min Rain = 0
KDO1 102259Z 34008KT 26/M09 A2974 RMK A01 T02581087  RH  010%=      5-min Rain = 0
KDO1 102300Z 32009KT 26/M08 A2974 RMK A01 T02571083  RH  010%=      5-min Rain = 0
KDO1 102301Z 32012KT 26/M09 A2974 RMK A01 T02571086  RH  010%=      5-min Rain = 0
KDO1 102302Z 33011KT 26/M09 A2974 RMK A01 T02561088  RH  010%=      5-min Rain = 0
KDO1 102303Z 33010KT 26/M09 A2974 RMK A01 T02561087  RH  010%=      5-min Rain = 0
KDO1 102304Z 33012KT 26/M09 A2974 RMK A01 T02561086  RH  010%=      5-min Rain = 0
KDO1 102305Z 33012KT 26/M09 A2974 RMK A01 T02551092  RH  009%=      5-min Rain = 0
KDO1 102306Z 33010KT 25/M09 A2974 RMK A01 T02541091  RH  009%=      5-min Rain = 0
KDO1 102307Z 33012KT 25/M09 A2974 RMK A01 T02541091  RH  010%=      5-min Rain = 0
KDO1 102308Z 33010KT 25/M09 A2974 RMK A01 T02531091  RH  010%=      5-min Rain = 0
KDO1 102309Z 33008KT 25/M09 A2975 RMK A01 T02531090  RH  010%=      5-min Rain = 0
KDO1 102310Z 34009KT 25/M09 A2975 RMK A01 T02521088  RH  010%=      5-min Rain = 0
KDO1 102311Z 33010KT 25/M09 A2975 RMK A01 T02521087  RH  010%=      5-min Rain = 0
KDO1 102312Z 34011KT 25/M09 A2974 RMK A01 T02511090  RH  010%=      5-min Rain = 0
KDO1 102313Z 34009KT 25/M09 A2975 RMK A01 T02511087  RH  010%=      5-min Rain = 0
KDO1 102314Z 34008KT 25/M09 A2975 RMK A01 T02511086  RH  010%=      5-min Rain = 0
KDO1 102315Z 34010KT 25/M09 A2975 RMK A01 T02501087  RH  010%=      5-min Rain = 0
KDO1 102316Z 34011KT 25/M09 A2975 RMK A01 T02501087  RH  010%=      5-min Rain = 0
KDO1 102317Z 34010KT 25/M09 A2975 RMK A01 T02491088  RH  010%=      5-min Rain = 0
KDO1 102318Z 34008KT 25/M09 A2975 RMK A01 T02491085  RH  010%=      5-min Rain = 0
KDO1 102319Z 35008KT 25/M08 A2975 RMK A01 T02481082  RH  011%=      5-min Rain = 0
KDO1 102320Z 34009KT 25/M08 A2975 RMK A01 T02481084  RH  010%=      5-min Rain = 0
KDO1 102321Z 34007KT 25/M08 A2975 RMK A01 T02471084  RH  010%=      5-min Rain = 0
KDO1 102322Z 34007KT 25/M08 A2975 RMK A01 T02471080  RH  011%=      5-min Rain = 0
KDO1 102323Z 34009KT 25/M08 A2975 RMK A01 T02461083  RH  011%=      5-min Rain = 0
KDO1 102324Z 34008KT 25/M09 A2975 RMK A01 T02461085  RH  010%=      5-min Rain = 0
KDO1 102325Z 34009KT 25/M09 A2975 RMK A01 T02461085  RH  010%=      5-min Rain = 0
KDO1 102326Z 34009KT 25/M08 A2975 RMK A01 T02461084  RH  011%=      5-min Rain = 0
KDO1 102327Z 35011KT 25/M09 A2975 RMK A01 T02461086  RH  010%=      5-min Rain = 0
KDO1 102328Z 34010KT 25/M09 A2975 RMK A01 T02451086  RH  010%=      5-min Rain = 0
KDO1 102329Z 35010KT 25/M09 A2976 RMK A01 T02451085  RH  010%=      5-min Rain = 0
KDO1 102330Z 35010KT 24/M09 A2976 RMK A01 T02441086  RH  010%=      5-min Rain = 0
KDO1 102331Z 35011KT 24/M09 A2976 RMK A01 T02441086  RH  010%=      5-min Rain = 0
KDO1 102332Z 36009KT 24/M09 A2976 RMK A01 T02441086  RH  010%=      5-min Rain = 0
KDO1 102333Z 36009KT 24/M08 A2976 RMK A01 T02441083  RH  011%=      5-min Rain = 0
KDO1 102334Z 36007KT 24/M09 A2976 RMK A01 T02431085  RH  011%=      5-min Rain = 0
KDO1 102335Z 36008KT 24/M08 A2976 RMK A01 T02421084  RH  011%=      5-min Rain = 0
KDO1 102336Z 35008KT 24/M08 A2976 RMK A01 T02411082  RH  011%=      5-min Rain = 0
KDO1 102337Z 36009KT 24/M08 A2976 RMK A01 T02411082  RH  011%=      5-min Rain = 0
KDO1 102338Z 35008KT 24/M08 A2976 RMK A01 T02401083  RH  011%=      5-min Rain = 0
KDO1 102339Z 35008KT 24/M08 A2976 RMK A01 T02391082  RH  011%=      5-min Rain = 0
KDO1 102340Z 35008KT 24/M08 A2976 RMK A01 T02391081  RH  011%=      5-min Rain = 0
KDO1 102341Z 35008KT 24/M08 A2976 RMK A01 T02381081  RH  011%=      5-min Rain = 0
KDO1 102342Z 35008KT 24/M08 A2976 RMK A01 T02381081  RH  011%=      5-min Rain = 0
KDO1 102343Z 35008KT 24/M08 A2976 RMK A01 T02371081  RH  011%=      5-min Rain = 0
KDO1 102344Z 35007KT 24/M08 A2976 RMK A01 T02371082  RH  011%=      5-min Rain = 0
KDO1 102345Z 35008KT 24/M08 A2976 RMK A01 T02371080  RH  011%=      5-min Rain = 0
KDO1 102346Z 34008KT 24/M08 A2976 RMK A01 T02361081  RH  011%=      5-min Rain = 0
KDO1 102347Z 35008KT 24/M08 A2976 RMK A01 T02361082  RH  011%=      5-min Rain = 0
KDO1 102348Z 34009KT 24/M08 A2976 RMK A01 T02361082  RH  011%=      5-min Rain = 0
KDO1 102349Z 35010KT 24/M08 A2976 RMK A01 T02351084  RH  011%=      5-min Rain = 0
KDO1 102350Z 35008KT 24/M08 A2976 RMK A01 T02351083  RH  011%=      5-min Rain = 0
KDO1 102351Z 35010KT 24/M08 A2976 RMK A01 T02351082  RH  011%=      5-min Rain = 0
KDO1 102352Z 34010KT 24/M08 A2976 RMK A01 T02351084  RH  011%=      5-min Rain = 0
KDO1 102353Z 34010KT 24/M08 A2977 RMK A01 T02351084  RH  011%=      5-min Rain = 0
KDO1 102354Z 34010KT 23/M08 A2977 RMK A01 T02341084  RH  011%=      5-min Rain = 0
KDO1 102355Z 34010KT 23/M08 A2977 RMK A01 T02341084  RH  011%=      5-min Rain = 0
KDO1 102356Z 34009KT 23/M08 A2977 RMK A01 T02341083  RH  011%=      5-min Rain = 0
KDO1 102357Z 34011KT 23/M08 A2977 RMK A01 T02331083  RH  011%=      5-min Rain = 0
KDO1 102358Z 35010KT 23/M08 A2977 RMK A01 T02331083  RH  011%=      5-min Rain = 0
KDO1 102359Z 35009KT 23/M08 A2977 RMK A01 T02321083  RH  011%=      5-min Rain = 0
KDO1 110000Z 35008KT 23/M08 A2977 RMK A01 T02321083  RH  012%=      5-min Rain = 0
KDO1 110001Z 35009KT 23/M08 A2977 RMK A01 T02321082  RH  012%=      5-min Rain = 0
KDO1 110002Z 35009KT 23/M08 A2977 RMK A01 T02311082  RH  012%=      5-min Rain = 0
KDO1 110003Z 35009KT 23/M08 A2977 RMK A01 T02311082  RH  012%=      5-min Rain = 0
KDO1 110004Z 35008KT 23/M08 A2977 RMK A01 T02301082  RH  012%=      5-min Rain = 0
KDO1 110005Z 35008KT 23/M08 A2978 RMK A01 T02301081  RH  012%=      5-min Rain = 0
KDO1 110006Z 35008KT 23/M08 A2978 RMK A01 T02291081  RH  012%=      5-min Rain = 0
KDO1 110007Z 35008KT 23/M08 A2978 RMK A01 T02291081  RH  012%=      5-min Rain = 0
KDO1 110008Z 35007KT 23/M08 A2978 RMK A01 T02281080  RH  012%=      5-min Rain = 0
KDO1 110009Z 36008KT 23/M08 A2978 RMK A01 T02271079  RH  012%=      5-min Rain = 0
KDO1 110010Z 35008KT 23/M08 A2978 RMK A01 T02261080  RH  012%=      5-min Rain = 0
KDO1 110011Z 36008KT 23/M08 A2978 RMK A01 T02261080  RH  012%=      5-min Rain = 0
KDO1 110012Z 35008KT 23/M08 A2978 RMK A01 T02251080  RH  012%=      5-min Rain = 0
KDO1 110013Z 35008KT 23/M08 A2978 RMK A01 T02251080  RH  012%=      5-min Rain = 0
KDO1 110014Z 36007KT 22/M08 A2978 RMK A01 T02241080  RH  012%=      5-min Rain = 0
KDO1 110015Z 36008KT 22/M08 A2977 RMK A01 T02231080  RH  012%=      5-min Rain = 0
KDO1 110016Z 36007KT 22/M08 A2977 RMK A01 T02231079  RH  013%=      5-min Rain = 0
KDO1 110017Z 35008KT 22/M08 A2977 RMK A01 T02221078  RH  013%=      5-min Rain = 0
KDO1 110018Z 35007KT 22/M08 A2977 RMK A01 T02221078  RH  013%=      5-min Rain = 0
KDO1 110019Z 35007KT 22/M08 A2977 RMK A01 T02211078  RH  013%=      5-min Rain = 0
KDO1 110020Z 35006KT 22/M08 A2977 RMK A01 T02201077  RH  013%=      5-min Rain = 0
KDO1 110021Z 36007KT 22/M08 A2977 RMK A01 T02201076  RH  013%=      5-min Rain = 0
KDO1 110022Z 36007KT 22/M08 A2977 RMK A01 T02191076  RH  013%=      5-min Rain = 0
KDO1 110023Z 36007KT 22/M08 A2977 RMK A01 T02181077  RH  013%=      5-min Rain = 0
KDO1 110024Z 36007KT 22/M08 A2978 RMK A01 T02181076  RH  013%=      5-min Rain = 0
KDO1 110025Z 36007KT 22/M08 A2978 RMK A01 T02171077  RH  013%=      5-min Rain = 0
KDO1 110026Z 36007KT 22/M08 A2978 RMK A01 T02161077  RH  013%=      5-min Rain = 0
KDO1 110027Z 00007KT 22/M08 A2978 RMK A01 T02161077  RH  013%=      5-min Rain = 0
KDO1 110028Z 36007KT 22/M08 A2978 RMK A01 T02151077  RH  013%=      5-min Rain = 0
KDO1 110029Z 36007KT 22/M08 A2978 RMK A01 T02151077  RH  013%=      5-min Rain = 0
KDO1 110030Z 36007KT 21/M08 A2978 RMK A01 T02141076  RH  014%=      5-min Rain = 0
KDO1 110031Z 36007KT 21/M08 A2978 RMK A01 T02131076  RH  014%=      5-min Rain = 0
KDO1 110032Z 36006KT 21/M08 A2978 RMK A01 T02121077  RH  014%=      5-min Rain = 0
KDO1 110033Z 35007KT 21/M08 A2978 RMK A01 T02121077  RH  014%=      5-min Rain = 0
KDO1 110034Z 35007KT 21/M08 A2978 RMK A01 T02121077  RH  014%=      5-min Rain = 0
KDO1 110035Z 35007KT 21/M08 A2978 RMK A01 T02121076  RH  014%=      5-min Rain = 0
KDO1 110036Z 35007KT 21/M08 A2978 RMK A01 T02111076  RH  014%=      5-min Rain = 0
KDO1 110037Z 35008KT 21/M08 A2978 RMK A01 T02101076  RH  014%=      5-min Rain = 0
KDO1 110038Z 36011KT 21/M08 A2978 RMK A01 T02091077  RH  014%=      5-min Rain = 0
KDO1 110039Z 00010KT 21/M08 A2978 RMK A01 T02101077  RH  014%=      5-min Rain = 0
KDO1 110040Z 00010KT 21/M08 A2979 RMK A01 T02111076  RH  014%=      5-min Rain = 0
KDO1 110041Z 00008KT 21/M08 A2979 RMK A01 T02111075  RH  014%=      5-min Rain = 0
KDO1 110042Z 00009KT 21/M07 A2979 RMK A01 T02111074  RH  014%=      5-min Rain = 0
KDO1 110043Z 01009KT 21/M07 A2979 RMK A01 T02111074  RH  014%=      5-min Rain = 0
KDO1 110044Z 01008KT 21/M07 A2979 RMK A01 T02111074  RH  014%=      5-min Rain = 0
KDO1 110045Z 01008KT 21/M07 A2979 RMK A01 T02111073  RH  014%=      5-min Rain = 0
KDO1 110046Z 01009KT 21/M07 A2979 RMK A01 T02111073  RH  014%=      5-min Rain = 0
KDO1 110047Z 01009KT 21/M07 A2979 RMK A01 T02101072  RH  014%=      5-min Rain = 0
KDO1 110048Z 01009KT 21/M07 A2979 RMK A01 T02101072  RH  014%=      5-min Rain = 0
KDO1 110049Z 00009KT 21/M07 A2979 RMK A01 T02101070  RH  015%=      5-min Rain = 0
KDO1 110050Z 00007KT 21/M07 A2979 RMK A01 T02101070  RH  015%=      5-min Rain = 0
KDO1 110051Z 01009KT 21/M07 A2979 RMK A01 T02101069  RH  015%=      5-min Rain = 0
KDO1 110052Z 01009KT 21/M07 A2979 RMK A01 T02101069  RH  015%=      5-min Rain = 0
KDO1 110053Z 01008KT 21/M07 A2979 RMK A01 T02101069  RH  015%=      5-min Rain = 0
KDO1 110054Z 01009KT 21/M07 A2979 RMK A01 T02101069  RH  015%=      5-min Rain = 0
KDO1 110055Z 01008KT 21/M07 A2979 RMK A01 T02101069  RH  015%=      5-min Rain = 0
KDO1 110056Z 02007KT 21/M07 A2979 RMK A01 T02111068  RH  015%=      5-min Rain = 0
KDO1 110057Z 02007KT 21/M07 A2979 RMK A01 T02111068  RH  015%=      5-min Rain = 0
KDO1 110058Z 02008KT 21/M07 A2979 RMK A01 T02111067  RH  015%=      5-min Rain = 0
KDO1 110059Z 02009KT 21/M07 A2979 RMK A01 T02101067  RH  015%=      5-min Rain = 0
KDO1 110100Z 02008KT 21/M07 A2979 RMK A01 T02091068  RH  015%=      5-min Rain = 0
KDO1 110101Z 02010KT 21/M07 A2979 RMK A01 T02101067  RH  015%=      5-min Rain = 0
KDO1 110102Z 02008KT 21/M07 A2979 RMK A01 T02091068  RH  015%=      5-min Rain = 0
KDO1 110103Z 02008KT 21/M07 A2979 RMK A01 T02091068  RH  015%=      5-min Rain = 0
KDO1 110104Z 02008KT 21/M07 A2979 RMK A01 T02091068  RH  015%=      5-min Rain = 0
KDO1 110105Z 02008KT 21/M07 A2979 RMK A01 T02081068  RH  015%=      5-min Rain = 0
KDO1 110106Z 02009KT 21/M07 A2979 RMK A01 T02081068  RH  015%=      5-min Rain = 0
KDO1 110107Z 02010KT 21/M07 A2979 RMK A01 T02081068  RH  015%=      5-min Rain = 0
KDO1 110108Z 02008KT 21/M07 A2979 RMK A01 T02081069  RH  015%=      5-min Rain = 0
KDO1 110109Z 02008KT 21/M07 A2979 RMK A01 T02071069  RH  015%=      5-min Rain = 0
KDO1 110110Z 02009KT 21/M07 A2979 RMK A01 T02061069  RH  015%=      5-min Rain = 0
KDO1 110111Z 02009KT 21/M07 A2979 RMK A01 T02071069  RH  015%=      5-min Rain = 0
KDO1 110112Z 02008KT 21/M07 A2979 RMK A01 T02061070  RH  015%=      5-min Rain = 0
KDO1 110113Z 02007KT 21/M07 A2979 RMK A01 T02061069  RH  015%=      5-min Rain = 0
KDO1 110114Z 03008KT 21/M07 A2979 RMK A01 T02051069  RH  015%=      5-min Rain = 0
KDO1 110115Z 03008KT 20/M07 A2979 RMK A01 T02041070  RH  015%=      5-min Rain = 0
KDO1 110116Z 03009KT 20/M07 A2979 RMK A01 T02041069  RH  015%=      5-min Rain = 0
KDO1 110117Z 03009KT 20/M07 A2979 RMK A01 T02041069  RH  015%=      5-min Rain = 0
KDO1 110118Z 02008KT 20/M07 A2979 RMK A01 T02031069  RH  015%=      5-min Rain = 0
KDO1 110119Z 02008KT 20/M07 A2979 RMK A01 T02031069  RH  015%=      5-min Rain = 0
KDO1 110120Z 02008KT 20/M07 A2979 RMK A01 T02021070  RH  015%=      5-min Rain = 0
KDO1 110121Z 02008KT 20/M07 A2979 RMK A01 T02011070  RH  015%=      5-min Rain = 0
KDO1 110122Z 02008KT 20/M07 A2979 RMK A01 T02011070  RH  015%=      5-min Rain = 0
KDO1 110123Z 02006KT 20/M07 A298 RMK A01 T02011069  RH  016%=      5-min Rain = 0
KDO1 110124Z 02008KT 20/M07 A298 RMK A01 T02001069  RH  016%=      5-min Rain = 0
KDO1 110125Z 02007KT 20/M07 A298 RMK A01 T01991070  RH  016%=      5-min Rain = 0
KDO1 110126Z 03008KT 20/M07 A298 RMK A01 T01991070  RH  016%=      5-min Rain = 0
KDO1 110127Z 03007KT 20/M07 A298 RMK A01 T01981070  RH  016%=      5-min Rain = 0
KDO1 110128Z 03008KT 20/M07 A298 RMK A01 T01981070  RH  016%=      5-min Rain = 0
KDO1 110129Z 03008KT 20/M07 A298 RMK A01 T01981070  RH  016%=      5-min Rain = 0
KDO1 110130Z 03007KT 20/M07 A298 RMK A01 T01971070  RH  016%=      5-min Rain = 0
KDO1 110131Z 03007KT 20/M07 A298 RMK A01 T01961070  RH  016%=      5-min Rain = 0
KDO1 110132Z 03008KT 20/M07 A298 RMK A01 T01951070  RH  016%=      5-min Rain = 0
KDO1 110133Z 03007KT 19/M07 A298 RMK A01 T01941070  RH  016%=      5-min Rain = 0
KDO1 110134Z 03007KT 19/M07 A298 RMK A01 T01931070  RH  016%=      5-min Rain = 0
KDO1 110135Z 02007KT 19/M07 A298 RMK A01 T01921069  RH  016%=      5-min Rain = 0
KDO1 110136Z 02008KT 19/M07 A298 RMK A01 T01911069  RH  017%=      5-min Rain = 0
KDO1 110137Z 02008KT 19/M07 A298 RMK A01 T01911069  RH  017%=      5-min Rain = 0
KDO1 110138Z 02008KT 19/M07 A298 RMK A01 T01911069  RH  017%=      5-min Rain = 0
KDO1 110139Z 02007KT 19/M07 A298 RMK A01 T01911069  RH  017%=      5-min Rain = 0
KDO1 110140Z 02007KT 19/M07 A2981 RMK A01 T01911069  RH  017%=      5-min Rain = 0
KDO1 110141Z 02006KT 19/M07 A2981 RMK A01 T01901069  RH  017%=      5-min Rain = 0
KDO1 110142Z 02007KT 19/M07 A2981 RMK A01 T01901068  RH  017%=      5-min Rain = 0
KDO1 110143Z 01007KT 19/M07 A2981 RMK A01 T01901067  RH  017%=      5-min Rain = 0
KDO1 110144Z 01006KT 19/M07 A2981 RMK A01 T01901066  RH  017%=      5-min Rain = 0
KDO1 110145Z 01006KT 19/M07 A2981 RMK A01 T01901066  RH  017%=      5-min Rain = 0
KDO1 110146Z 01007KT 19/M07 A2981 RMK A01 T01891067  RH  017%=      5-min Rain = 0
KDO1 110147Z 01006KT 19/M07 A2981 RMK A01 T01881067  RH  017%=      5-min Rain = 0
KDO1 110148Z 00007KT 19/M07 A2981 RMK A01 T01861067  RH  017%=      5-min Rain = 0
KDO1 110149Z 00006KT 19/M07 A2981 RMK A01 T01851068  RH  017%=      5-min Rain = 0
KDO1 110150Z 36007KT 18/M07 A2981 RMK A01 T01831067  RH  018%=      5-min Rain = 0
KDO1 110151Z 00008KT 18/M07 A2981 RMK A01 T01811068  RH  018%=      5-min Rain = 0
KDO1 110152Z 01007KT 18/M07 A2981 RMK A01 T01801068  RH  018%=      5-min Rain = 0
KDO1 110153Z 00008KT 18/M07 A2981 RMK A01 T01791069  RH  018%=      5-min Rain = 0
KDO1 110154Z 00008KT 18/M07 A2981 RMK A01 T01781068  RH  018%=      5-min Rain = 0
KDO1 110155Z 36008KT 18/M07 A2981 RMK A01 T01781067  RH  018%=      5-min Rain = 0
KDO1 110156Z 36008KT 18/M07 A2981 RMK A01 T01781067  RH  018%=      5-min Rain = 0
KDO1 110157Z 36008KT 18/M07 A2981 RMK A01 T01771067  RH  018%=      5-min Rain = 0
KDO1 110158Z 00008KT 18/M07 A2981 RMK A01 T01761067  RH  018%=      5-min Rain = 0
KDO1 110159Z 00008KT 18/M07 A2981 RMK A01 T01761067  RH  018%=      5-min Rain = 0
KDO1 110200Z 00008KT 18/M07 A2981 RMK A01 T01761067  RH  018%=      5-min Rain = 0
KDO1 110201Z 00008KT 18/M07 A2981 RMK A01 T01761066  RH  019%=      5-min Rain = 0
KDO1 110202Z 01008KT 18/M07 A2981 RMK A01 T01761066  RH  019%=      5-min Rain = 0
KDO1 110203Z 00008KT 18/M07 A2982 RMK A01 T01761065  RH  019%=      5-min Rain = 0
KDO1 110204Z 00008KT 18/M07 A2982 RMK A01 T01761065  RH  019%=      5-min Rain = 0
KDO1 110205Z 00008KT 18/M07 A2982 RMK A01 T01761065  RH  019%=      5-min Rain = 0
KDO1 110206Z 00008KT 18/M07 A2982 RMK A01 T01751065  RH  019%=      5-min Rain = 0
KDO1 110207Z 00008KT 18/M07 A2982 RMK A01 T01751065  RH  019%=      5-min Rain = 0
KDO1 110208Z 00008KT 17/M07 A2982 RMK A01 T01741065  RH  019%=      5-min Rain = 0
KDO1 110209Z 00008KT 17/M07 A2982 RMK A01 T01731065  RH  019%=      5-min Rain = 0
KDO1 110210Z 00008KT 17/M07 A2982 RMK A01 T01721065  RH  019%=      5-min Rain = 0
KDO1 110211Z 01008KT 17/M07 A2982 RMK A01 T01721065  RH  019%=      5-min Rain = 0
KDO1 110212Z 00008KT 17/M07 A2982 RMK A01 T01721065  RH  019%=      5-min Rain = 0
KDO1 110213Z 00008KT 17/M07 A2982 RMK A01 T01711065  RH  019%=      5-min Rain = 0
KDO1 110214Z 00008KT 17/M07 A2982 RMK A01 T01711065  RH  019%=      5-min Rain = 0
KDO1 110215Z 00008KT 17/M07 A2982 RMK A01 T01711065  RH  019%=      5-min Rain = 0
KDO1 110216Z 01008KT 17/M07 A2983 RMK A01 T01701065  RH  019%=      5-min Rain = 0
KDO1 110217Z 01008KT 17/M07 A2983 RMK A01 T01691065  RH  019%=      5-min Rain = 0
KDO1 110218Z 01007KT 17/M07 A2983 RMK A01 T01691065  RH  020%=      5-min Rain = 0
KDO1 110219Z 01007KT 17/M07 A2983 RMK A01 T01681065  RH  020%=      5-min Rain = 0
KDO1 110220Z 01007KT 17/M07 A2983 RMK A01 T01681065  RH  020%=      5-min Rain = 0
KDO1 110221Z 01007KT 17/M07 A2983 RMK A01 T01681065  RH  020%=      5-min Rain = 0
KDO1 110222Z 01007KT 17/M07 A2984 RMK A01 T01671065  RH  020%=      5-min Rain = 0
KDO1 110223Z 01007KT 17/M06 A2984 RMK A01 T01661064  RH  020%=      5-min Rain = 0
KDO1 110224Z 01009KT 17/M06 A2984 RMK A01 T01661063  RH  020%=      5-min Rain = 0
KDO1 110225Z 01008KT 17/M06 A2984 RMK A01 T01651062  RH  020%=      5-min Rain = 0
KDO1 110226Z 01009KT 17/M06 A2984 RMK A01 T01661060  RH  021%=      5-min Rain = 0
KDO1 110227Z 02012KT 17/M06 A2984 RMK A01 T01671056  RH  021%=      5-min Rain = 0
KDO1 110228Z 02011KT 17/M05 A2984 RMK A01 T01731047  RH  022%=      5-min Rain = 0
KDO1 110229Z 02011KT 18/M05 A2984 RMK A01 T01781045  RH  021%=      5-min Rain = 0
KDO1 110230Z 02011KT 18/M05 A2984 RMK A01 T01811045  RH  021%=      5-min Rain = 0
KDO1 110231Z 02011KT 18/M05 A2984 RMK A01 T01821046  RH  021%=      5-min Rain = 0
KDO1 110232Z 02011KT 18/M05 A2984 RMK A01 T01821046  RH  021%=      5-min Rain = 0
KDO1 110233Z 02010KT 18/M05 A2984 RMK A01 T01801045  RH  021%=      5-min Rain = 0
KDO1 110234Z 02009KT 18/M04 A2984 RMK A01 T01801043  RH  022%=      5-min Rain = 0
KDO1 110235Z 02009KT 18/M04 A2984 RMK A01 T01781042  RH  022%=      5-min Rain = 0
KDO1 110236Z 01007KT 18/M04 A2984 RMK A01 T01761042  RH  022%=      5-min Rain = 0
KDO1 110237Z 02011KT 18/M04 A2985 RMK A01 T01751039  RH  023%=      5-min Rain = 0
KDO1 110238Z 02010KT 17/M04 A2985 RMK A01 T01741037  RH  023%=      5-min Rain = 0
KDO1 110239Z 02010KT 17/M03 A2985 RMK A01 T01731033  RH  024%=      5-min Rain = 0
KDO1 110240Z 02011KT 17/M03 A2985 RMK A01 T01731031  RH  025%=      5-min Rain = 0
KDO1 110241Z 02009G14KT 17/M03 A2985 RMK A01 T01721027  RH  025%=      5-min Rain = 0
KDO1 110242Z 02010KT 17/M03 A2985 RMK A01 T01711025  RH  026%=      5-min Rain = 0
KDO1 110243Z 02011KT 17/M02 A2985 RMK A01 T01711020  RH  027%=      5-min Rain = 0
KDO1 110244Z 02011KT 17/M02 A2985 RMK A01 T01711015  RH  028%=      5-min Rain = 0
KDO1 110245Z 03010KT 17/M01 A2985 RMK A01 T01711011  RH  029%=      5-min Rain = 0
KDO1 110246Z 03011G16KT 17/M01 A2985 RMK A01 T01701006  RH  030%=      5-min Rain = 0
KDO1 110247Z 03010KT 17/M00 A2985 RMK A01 T01711003  RH  031%=      5-min Rain = 0
KDO1 110248Z 03010KT 17/M00 A2985 RMK A01 T01711001  RH  031%=      5-min Rain = 0
KDO1 110249Z 03009KT 17/00 A2985 RMK A01 T01710002  RH  032%=      5-min Rain = 0
KDO1 110250Z 03012KT 17/01 A2985 RMK A01 T01710005  RH  033%=      5-min Rain = 0
KDO1 110251Z 03010KT 17/01 A2985 RMK A01 T01700007  RH  033%=      5-min Rain = 0
KDO1 110252Z 03009KT 17/01 A2985 RMK A01 T01710009  RH  034%=      5-min Rain = 0
KDO1 110253Z 03011KT 17/01 A2986 RMK A01 T01700011  RH  034%=      5-min Rain = 0
KDO1 110254Z 03010KT 17/01 A2986 RMK A01 T01700012  RH  034%=      5-min Rain = 0
KDO1 110255Z 03009KT 17/01 A2986 RMK A01 T01700013  RH  035%=      5-min Rain = 0
KDO1 110256Z 03010KT 17/01 A2986 RMK A01 T01700014  RH  035%=      5-min Rain = 0
KDO1 110257Z 03009KT 17/02 A2986 RMK A01 T01690015  RH  035%=      5-min Rain = 0
KDO1 110258Z 04010KT 17/02 A2986 RMK A01 T01690015  RH  035%=      5-min Rain = 0
KDO1 110259Z 03010KT 17/02 A2986 RMK A01 T01690017  RH  036%=      5-min Rain = 0
KDO1 110300Z 03008KT 17/02 A2986 RMK A01 T01690018  RH  036%=      5-min Rain = 0
KDO1 110301Z 01008KT 17/02 A2986 RMK A01 T01680018  RH  036%=      5-min Rain = 0
KDO1 110302Z 01009KT 17/02 A2986 RMK A01 T01670019  RH  037%=      5-min Rain = 0
KDO1 110303Z 01008KT 17/02 A2986 RMK A01 T01670021  RH  037%=      5-min Rain = 0
KDO1 110304Z 02008KT 17/02 A2986 RMK A01 T01660022  RH  038%=      5-min Rain = 0
KDO1 110305Z 02008KT 17/02 A2986 RMK A01 T01650023  RH  038%=      5-min Rain = 0
KDO1 110306Z 02009KT 17/02 A2986 RMK A01 T01650024  RH  039%=      5-min Rain = 0
KDO1 110307Z 03008KT 17/03 A2986 RMK A01 T01650025  RH  039%=      5-min Rain = 0
KDO1 110308Z 02010KT 17/03 A2986 RMK A01 T01650027  RH  040%=      5-min Rain = 0
KDO1 110309Z 02011KT 17/03 A2987 RMK A01 T01650029  RH  040%=      5-min Rain = 0
KDO1 110310Z 02009KT 17/03 A2987 RMK A01 T01650030  RH  040%=      5-min Rain = 0
KDO1 110311Z 02010KT 17/03 A2987 RMK A01 T01650031  RH  041%=      5-min Rain = 0
KDO1 110312Z 02009KT 17/03 A2987 RMK A01 T01650033  RH  041%=      5-min Rain = 0
KDO1 110313Z 02010KT 17/04 A2987 RMK A01 T01650035  RH  042%=      5-min Rain = 0
KDO1 110314Z 02011KT 17/04 A2987 RMK A01 T01650035  RH  042%=      5-min Rain = 0
KDO1 110315Z 02010KT 17/04 A2987 RMK A01 T01650036  RH  042%=      5-min Rain = 0
KDO1 110316Z 02010KT 17/04 A2987 RMK A01 T01650037  RH  043%=      5-min Rain = 0
KDO1 110317Z 02011KT 17/04 A2987 RMK A01 T01650039  RH  043%=      5-min Rain = 0
KDO1 110318Z 02010KT 17/04 A2987 RMK A01 T01660040  RH  043%=      5-min Rain = 0
KDO1 110319Z 02011KT 17/04 A2987 RMK A01 T01650040  RH  043%=      5-min Rain = 0
KDO1 110320Z 02011KT 17/04 A2987 RMK A01 T01660041  RH  044%=      5-min Rain = 0
KDO1 110321Z 02010G15KT 17/04 A2987 RMK A01 T01650041  RH  044%=      5-min Rain = 0
KDO1 110322Z 02010KT 17/04 A2988 RMK A01 T01650042  RH  044%=      5-min Rain = 0
KDO1 110323Z 02009KT 17/04 A2988 RMK A01 T01650042  RH  044%=      5-min Rain = 0
KDO1 110324Z 02012KT 17/04 A2988 RMK A01 T01650043  RH  044%=      5-min Rain = 0
KDO1 110325Z 02010KT 17/04 A2988 RMK A01 T01650043  RH  044%=      5-min Rain = 0
KDO1 110326Z 02009KT 17/04 A2988 RMK A01 T01650043  RH  044%=      5-min Rain = 0
KDO1 110327Z 02009G14KT 16/04 A2988 RMK A01 T01640043  RH  044%=      5-min Rain = 0
KDO1 110328Z 02011KT 16/04 A2988 RMK A01 T01640043  RH  045%=      5-min Rain = 0
KDO1 110329Z 03010G15KT 16/04 A2988 RMK A01 T01640043  RH  045%=      5-min Rain = 0
KDO1 110330Z 03010KT 16/04 A2988 RMK A01 T01640043  RH  045%=      5-min Rain = 0
KDO1 110331Z 02009KT 16/04 A2988 RMK A01 T01630043  RH  045%=      5-min Rain = 0
KDO1 110332Z 02009KT 16/04 A2988 RMK A01 T01630044  RH  045%=      5-min Rain = 0
KDO1 110333Z 02010KT 16/04 A2988 RMK A01 T01630044  RH  045%=      5-min Rain = 0
KDO1 110334Z 02008KT 16/04 A2988 RMK A01 T01620044  RH  045%=      5-min Rain = 0
KDO1 110335Z 03010KT 16/04 A2989 RMK A01 T01620044  RH  046%=      5-min Rain = 0
KDO1 110336Z 02009KT 16/04 A2989 RMK A01 T01610044  RH  046%=      5-min Rain = 0
KDO1 110337Z 02009KT 16/04 A2989 RMK A01 T01610044  RH  046%=      5-min Rain = 0
KDO1 110338Z 02009KT 16/04 A2989 RMK A01 T01600044  RH  046%=      5-min Rain = 0
KDO1 110339Z 02007KT 16/04 A2989 RMK A01 T01590044  RH  046%=      5-min Rain = 0
KDO1 110340Z 03009KT 16/04 A2989 RMK A01 T01590044  RH  046%=      5-min Rain = 0
KDO1 110341Z 02008KT 16/05 A2989 RMK A01 T01590045  RH  047%=      5-min Rain = 0
KDO1 110342Z 02011KT 16/05 A2989 RMK A01 T01590045  RH  047%=      5-min Rain = 0
KDO1 110343Z 02012G17KT 16/05 A2989 RMK A01 T01590046  RH  047%=      5-min Rain = 0
KDO1 110344Z 03011KT 16/05 A2989 RMK A01 T01590047  RH  047%=      5-min Rain = 0
KDO1 110345Z 03012KT 16/05 A2989 RMK A01 T01590047  RH  047%=      5-min Rain = 0
KDO1 110346Z 03012KT 16/05 A299 RMK A01 T01590048  RH  047%=      5-min Rain = 0
KDO1 110347Z 03011KT 16/05 A299 RMK A01 T01600049  RH  047%=      5-min Rain = 0
KDO1 110348Z 02010KT 16/05 A299 RMK A01 T01600049  RH  047%=      5-min Rain = 0
KDO1 110349Z 02011KT 16/05 A299 RMK A01 T01590048  RH  048%=      5-min Rain = 0
KDO1 110350Z 03009KT 16/05 A299 RMK A01 T01590048  RH  048%=      5-min Rain = 0
KDO1 110351Z 02009KT 16/05 A299 RMK A01 T01590048  RH  048%=      5-min Rain = 0
KDO1 110352Z 03009KT 16/05 A299 RMK A01 T01580047  RH  048%=      5-min Rain = 0
KDO1 110353Z 02008KT 16/05 A299 RMK A01 T01580048  RH  048%=      5-min Rain = 0
KDO1 110354Z 03009KT 16/05 A299 RMK A01 T01570048  RH  048%=      5-min Rain = 0
KDO1 110355Z 02008KT 16/05 A299 RMK A01 T01570047  RH  048%=      5-min Rain = 0
KDO1 110356Z 02008KT 16/05 A299 RMK A01 T01560048  RH  048%=      5-min Rain = 0
KDO1 110357Z 03010KT 16/05 A299 RMK A01 T01550047  RH  048%=      5-min Rain = 0
KDO1 110358Z 02010KT 16/05 A2991 RMK A01 T01550048  RH  049%=      5-min Rain = 0
KDO1 110359Z 02008KT 16/05 A2991 RMK A01 T01550047  RH  049%=      5-min Rain = 0
KDO1 110400Z 02008KT 15/05 A2991 RMK A01 T01540047  RH  049%=      5-min Rain = 0
KDO1 110401Z 03008KT 15/05 A2991 RMK A01 T01540048  RH  049%=      5-min Rain = 0
KDO1 110402Z 02010KT 15/05 A2991 RMK A01 T01540048  RH  049%=      5-min Rain = 0
KDO1 110403Z 03009KT 15/05 A2991 RMK A01 T01540048  RH  049%=      5-min Rain = 0
KDO1 110404Z 03009KT 15/05 A2991 RMK A01 T01530048  RH  049%=      5-min Rain = 0
KDO1 110405Z 02009KT 15/05 A2991 RMK A01 T01530048  RH  050%=      5-min Rain = 0
KDO1 110406Z 02010KT 15/05 A2991 RMK A01 T01530049  RH  050%=      5-min Rain = 0
KDO1 110407Z 02010KT 15/05 A2991 RMK A01 T01530049  RH  050%=      5-min Rain = 0
KDO1 110408Z 02010KT 15/05 A2991 RMK A01 T01530049  RH  050%=      5-min Rain = 0
KDO1 110409Z 02008KT 15/05 A2991 RMK A01 T01530049  RH  050%=      5-min Rain = 0
KDO1 110410Z 02009KT 15/05 A2992 RMK A01 T01530050  RH  050%=      5-min Rain = 0
KDO1 110411Z 02007KT 15/05 A2992 RMK A01 T01520050  RH  050%=      5-min Rain = 0
KDO1 110412Z 02009KT 15/05 A2992 RMK A01 T01520050  RH  051%=      5-min Rain = 0
KDO1 110413Z 02008KT 15/05 A2992 RMK A01 T01510050  RH  051%=      5-min Rain = 0
KDO1 110414Z 02008KT 15/05 A2992 RMK A01 T01510050  RH  051%=      5-min Rain = 0
KDO1 110415Z 01008KT 15/05 A2992 RMK A01 T01510050  RH  051%=      5-min Rain = 0
KDO1 110416Z 01008KT 15/05 A2992 RMK A01 T01500050  RH  051%=      5-min Rain = 0
KDO1 110417Z 01008KT 15/05 A2992 RMK A01 T01500050  RH  051%=      5-min Rain = 0
KDO1 110418Z 00010KT 15/05 A2993 RMK A01 T01490049  RH  051%=      5-min Rain = 0
KDO1 110419Z 35011KT 15/05 A2993 RMK A01 T01480048  RH  051%=      5-min Rain = 0
KDO1 110420Z 35013KT 15/05 A2993 RMK A01 T01470048  RH  051%=      5-min Rain = 0
KDO1 110421Z 34013KT 15/05 A2994 RMK A01 T01450047  RH  052%=      5-min Rain = 0
KDO1 110422Z 34015KT 15/05 A2994 RMK A01 T01450047  RH  052%=      5-min Rain = 0
KDO1 110423Z 35014KT 15/05 A2994 RMK A01 T01460046  RH  051%=      5-min Rain = 0
KDO1 110424Z 34015G20KT 15/05 A2994 RMK A01 T01460046  RH  051%=      5-min Rain = 0
KDO1 110425Z 35014G19KT 15/04 A2994 RMK A01 T01450044  RH  051%=      5-min Rain = 0
KDO1 110426Z 00013G18KT 15/04 A2994 RMK A01 T01450043  RH  050%=      5-min Rain = 0
KDO1 110427Z 00015KT 15/04 A2994 RMK A01 T01460042  RH  050%=      5-min Rain = 0
KDO1 110428Z 36013KT 15/04 A2994 RMK A01 T01470041  RH  049%=      5-min Rain = 0
KDO1 110429Z 00016KT 15/04 A2994 RMK A01 T01470041  RH  049%=      5-min Rain = 0
KDO1 110430Z 36013KT 15/04 A2994 RMK A01 T01480040  RH  048%=      5-min Rain = 0
KDO1 110431Z 00015KT 15/04 A2995 RMK A01 T01480038  RH  048%=      5-min Rain = 0
KDO1 110432Z 00018KT 15/04 A2995 RMK A01 T01480035  RH  047%=      5-min Rain = 0
KDO1 110433Z 00017KT 15/03 A2995 RMK A01 T01480030  RH  045%=      5-min Rain = 0
KDO1 110434Z 01014G19KT 15/03 A2995 RMK A01 T01480027  RH  044%=      5-min Rain = 0
KDO1 110435Z 01018KT 15/03 A2995 RMK A01 T01480026  RH  044%=      5-min Rain = 0
KDO1 110436Z 00015G21KT 15/02 A2995 RMK A01 T01470022  RH  043%=      5-min Rain = 0
KDO1 110437Z 00016G21KT 15/02 A2995 RMK A01 T01470021  RH  042%=      5-min Rain = 0
KDO1 110438Z 00015G21KT 15/02 A2995 RMK A01 T01460019  RH  042%=      5-min Rain = 0
KDO1 110439Z 01013G18KT 15/02 A2995 RMK A01 T01460017  RH  042%=      5-min Rain = 0
KDO1 110440Z 00014G19KT 15/02 A2995 RMK A01 T01450017  RH  042%=      5-min Rain = 0
KDO1 110441Z 01015G21KT 14/01 A2995 RMK A01 T01440013  RH  041%=      5-min Rain = 0
KDO1 110442Z 01018G23KT 14/01 A2995 RMK A01 T01440011  RH  040%=      5-min Rain = 0
KDO1 110443Z 36014KT 15/01 A2995 RMK A01 T01450009  RH  040%=      5-min Rain = 0
KDO1 110444Z 01014KT 15/01 A2995 RMK A01 T01450009  RH  040%=      5-min Rain = 0
KDO1 110445Z 00015KT 14/01 A2995 RMK A01 T01440008  RH  039%=      5-min Rain = 0
KDO1 110446Z 00016KT 14/01 A2995 RMK A01 T01440007  RH  039%=      5-min Rain = 0
KDO1 110447Z 01015G21KT 14/01 A2996 RMK A01 T01440005  RH  039%=      5-min Rain = 0
KDO1 110448Z 01017KT 14/00 A2996 RMK A01 T01440003  RH  038%=      5-min Rain = 0
KDO1 110449Z 01016G21KT 14/00 A2996 RMK A01 T01440001  RH  038%=      5-min Rain = 0
KDO1 110450Z 01018G23KT 14/M00 A2996 RMK A01 T01441003  RH  037%=      5-min Rain = 0
KDO1 110451Z 01019G25KT 15/M00 A2996 RMK A01 T01451004  RH  036%=      5-min Rain = 0
KDO1 110452Z 01019G24KT 15/M01 A2996 RMK A01 T01451007  RH  035%=      5-min Rain = 0
KDO1 110453Z 01018G23KT 15/M01 A2996 RMK A01 T01451008  RH  035%=      5-min Rain = 0
KDO1 110454Z 01016G21KT 15/M01 A2996 RMK A01 T01451009  RH  035%=      5-min Rain = 0
KDO1 110455Z 00018G24KT 15/M01 A2996 RMK A01 T01451010  RH  034%=      5-min Rain = 0
KDO1 110456Z 00015KT 15/M01 A2996 RMK A01 T01451012  RH  034%=      5-min Rain = 0
KDO1 110457Z 01016KT 15/M01 A2997 RMK A01 T01451012  RH  034%=      5-min Rain = 0
KDO1 110458Z 01018G24KT 14/M01 A2997 RMK A01 T01441013  RH  034%=      5-min Rain = 0
KDO1 110459Z 01014G19KT 14/M01 A2997 RMK A01 T01441014  RH  034%=      5-min Rain = 0
KDO1 110500Z 00014G20KT 14/M01 A2997 RMK A01 T01441014  RH  034%=      5-min Rain = 0
KDO1 110501Z 01014KT 14/M01 A2997 RMK A01 T01431014  RH  034%=      5-min Rain = 0
KDO1 110502Z 01014KT 14/M02 A2997 RMK A01 T01431015  RH  034%=      5-min Rain = 0
KDO1 110503Z 00014KT 14/M02 A2997 RMK A01 T01421015  RH  034%=      5-min Rain = 0
KDO1 110504Z 01015KT 14/M02 A2997 RMK A01 T01421015  RH  034%=      5-min Rain = 0
KDO1 110505Z 01014G19KT 14/M02 A2997 RMK A01 T01421016  RH  034%=      5-min Rain = 0
KDO1 110506Z 01014KT 14/M02 A2997 RMK A01 T01411017  RH  033%=      5-min Rain = 0
KDO1 110507Z 01015KT 14/M02 A2997 RMK A01 T01411019  RH  033%=      5-min Rain = 0
KDO1 110508Z 01014G19KT 14/M02 A2998 RMK A01 T01411020  RH  033%=      5-min Rain = 0
KDO1 110509Z 01014KT 14/M02 A2998 RMK A01 T01411022  RH  032%=      5-min Rain = 0
KDO1 110510Z 01016KT 14/M02 A2998 RMK A01 T01411023  RH  032%=      5-min Rain = 0
KDO1 110511Z 01011KT 14/M02 A2998 RMK A01 T01411024  RH  032%=      5-min Rain = 0
KDO1 110512Z 01012KT 14/M02 A2998 RMK A01 T01411024  RH  032%=      5-min Rain = 0
KDO1 110513Z 01012G20KT 14/M03 A2998 RMK A01 T01401026  RH  032%=      5-min Rain = 0
KDO1 110514Z 01015G20KT 14/M03 A2998 RMK A01 T01411028  RH  031%=      5-min Rain = 0
KDO1 110515Z 01014KT 14/M03 A2998 RMK A01 T01411029  RH  031%=      5-min Rain = 0
KDO1 110516Z 01014KT 14/M03 A2998 RMK A01 T01411030  RH  031%=      5-min Rain = 0
KDO1 110517Z 02013KT 14/M03 A2998 RMK A01 T01411030  RH  030%=      5-min Rain = 0
KDO1 110518Z 02015G20KT 14/M03 A2998 RMK A01 T01411030  RH  030%=      5-min Rain = 0
KDO1 110519Z 02011G16KT 14/M03 A2998 RMK A01 T01411031  RH  030%=      5-min Rain = 0
KDO1 110520Z 02015KT 14/M03 A2998 RMK A01 T01411031  RH  030%=      5-min Rain = 0
KDO1 110521Z 02011KT 14/M03 A2998 RMK A01 T01401032  RH  030%=      5-min Rain = 0
KDO1 110522Z 02013G18KT 14/M03 A2998 RMK A01 T01401032  RH  030%=      5-min Rain = 0
KDO1 110523Z 02011KT 14/M03 A2998 RMK A01 T01401032  RH  030%=      5-min Rain = 0
KDO1 110524Z 02014KT 14/M03 A2998 RMK A01 T01401033  RH  030%=      5-min Rain = 0
KDO1 110525Z 02011KT 14/M03 A2999 RMK A01 T01401033  RH  030%=      5-min Rain = 0
KDO1 110526Z 02012KT 14/M03 A2999 RMK A01 T01401033  RH  030%=      5-min Rain = 0
KDO1 110527Z 01013G21KT 14/M03 A2999 RMK A01 T01391033  RH  030%=      5-min Rain = 0
KDO1 110528Z 02013G18KT 14/M03 A2999 RMK A01 T01401033  RH  030%=      5-min Rain = 0
KDO1 110529Z 02010G15KT 14/M03 A2999 RMK A01 T01391034  RH  030%=      5-min Rain = 0
KDO1 110530Z 01012KT 14/M03 A2999 RMK A01 T01391034  RH  030%=      5-min Rain = 0
KDO1 110531Z 01014KT 14/M03 A2999 RMK A01 T01391034  RH  030%=      5-min Rain = 0
KDO1 110532Z 02013KT 14/M03 A2999 RMK A01 T01381034  RH  030%=      5-min Rain = 0
KDO1 110533Z 02010KT 14/M03 A2999 RMK A01 T01381034  RH  030%=      5-min Rain = 0
KDO1 110534Z 01013KT 14/M03 A2999 RMK A01 T01391034  RH  030%=      5-min Rain = 0
KDO1 110535Z 02015KT 14/M03 A2999 RMK A01 T01381034  RH  030%=      5-min Rain = 0
KDO1 110536Z 02013G18KT 14/M04 A30 RMK A01 T01381035  RH  030%=      5-min Rain = 0
KDO1 110537Z 02013KT 14/M04 A30 RMK A01 T01391035  RH  030%=      5-min Rain = 0
KDO1 110538Z 01013KT 14/M04 A30 RMK A01 T01391035  RH  030%=      5-min Rain = 0
KDO1 110539Z 02012KT 14/M03 A30 RMK A01 T01391034  RH  030%=      5-min Rain = 0
KDO1 110540Z 01013G18KT 14/M03 A30 RMK A01 T01391034  RH  030%=      5-min Rain = 0
KDO1 110541Z 01013G19KT 14/M04 A30 RMK A01 T01381035  RH  030%=      5-min Rain = 0
KDO1 110542Z 02012G19KT 14/M04 A30 RMK A01 T01381035  RH  030%=      5-min Rain = 0
KDO1 110543Z 01012G17KT 14/M04 A30 RMK A01 T01381035  RH  030%=      5-min Rain = 0
KDO1 110544Z 02011KT 14/M04 A30 RMK A01 T01391035  RH  030%=      5-min Rain = 0
KDO1 110545Z 02014KT 14/M04 A3001 RMK A01 T01381035  RH  030%=      5-min Rain = 0
KDO1 110546Z 02015KT 14/M04 A3001 RMK A01 T01381035  RH  030%=      5-min Rain = 0
KDO1 110547Z 01013KT 14/M03 A3001 RMK A01 T01391034  RH  030%=      5-min Rain = 0
KDO1 110548Z 02014KT 14/M03 A3001 RMK A01 T01391034  RH  030%=      5-min Rain = 0
KDO1 110549Z 01014KT 14/M03 A3001 RMK A01 T01391034  RH  030%=      5-min Rain = 0
KDO1 110550Z 01013G18KT 14/M03 A3001 RMK A01 T01391034  RH  030%=      5-min Rain = 0
KDO1 110551Z 01014G19KT 14/M04 A3001 RMK A01 T01381035  RH  030%=      5-min Rain = 0
KDO1 110552Z 02011G17KT 14/M04 A3001 RMK A01 T01381035  RH  030%=      5-min Rain = 0
KDO1 110553Z 01016G21KT 14/M04 A3001 RMK A01 T01381035  RH  030%=      5-min Rain = 0
KDO1 110554Z 02011G16KT 14/M04 A3001 RMK A01 T01381035  RH  030%=      5-min Rain = 0
KDO1 110555Z 01011KT 14/M04 A3001 RMK A01 T01381035  RH  030%=      5-min Rain = 0
KDO1 110556Z 02016G23KT 14/M04 A3001 RMK A01 T01371035  RH  030%=      5-min Rain = 0
KDO1 110557Z 02013G23KT 14/M04 A3002 RMK A01 T01371035  RH  030%=      5-min Rain = 0
KDO1 110558Z 02017G28KT 14/M03 A3002 RMK A01 T01381034  RH  030%=      5-min Rain = 0
KDO1 110559Z 02019G27KT 14/M03 A3002 RMK A01 T01391034  RH  030%=      5-min Rain = 0

Page generated in 0.1216 seconds.